<?xml version="1.0" encoding="utf-8"?>
<gpx xmlns:xsi="http://www.w3.org/2001/XMLSchema-instance" xmlns:xsd="http://www.w3.org/2001/XMLSchema" version="1.1" creator="Shapelink.com" xmlns="http://www.topografix.com/GPX/1/1" xmlns:gpxtpx="http://www.garmin.com/xmlschemas/TrackPointExtension/v1">
  <metadata>
    <name>Kører 13.14 km, 2019-12-23</name>
    <desc></desc>
    <author><name>Per Rooth</name></author> 
    <time>2019-12-23T16:09:43Z</time>
  </metadata>
  <trk>
    <name>Kører 13.14 km, 2019-12-23</name>
    <trkseg>
      <trkpt lat="58.571950591426" lon="15.938490968644">
        <ele>0</ele>
        <time>2019-12-23T16:09:43Z</time>
      </trkpt>
      <trkpt lat="58.572043881973" lon="15.938826244644">
        <ele>0</ele>
        <time>2019-12-23T16:09:51Z</time>
      </trkpt>
      <trkpt lat="58.572135831416" lon="15.939153390201">
        <ele>0</ele>
        <time>2019-12-23T16:09:58Z</time>
      </trkpt>
      <trkpt lat="58.572150499741" lon="15.93919873628">
        <ele>0</ele>
        <time>2019-12-23T16:09:59Z</time>
      </trkpt>
      <trkpt lat="58.572189224119" lon="15.939365200814">
        <ele>0</ele>
        <time>2019-12-23T16:10:03Z</time>
      </trkpt>
      <trkpt lat="58.572269522721" lon="15.939687149593">
        <ele>0</ele>
        <time>2019-12-23T16:10:10Z</time>
      </trkpt>
      <trkpt lat="58.572214537457" lon="15.939993424219">
        <ele>0</ele>
        <time>2019-12-23T16:10:17Z</time>
      </trkpt>
      <trkpt lat="58.572185871359" lon="15.940015300978">
        <ele>0</ele>
        <time>2019-12-23T16:10:18Z</time>
      </trkpt>
      <trkpt lat="58.572007588346" lon="15.940125187687">
        <ele>0</ele>
        <time>2019-12-23T16:10:24Z</time>
      </trkpt>
      <trkpt lat="58.571952435444" lon="15.940165588445">
        <ele>0</ele>
        <time>2019-12-23T16:10:26Z</time>
      </trkpt>
      <trkpt lat="58.571922428242" lon="15.94018444772">
        <ele>0</ele>
        <time>2019-12-23T16:10:27Z</time>
      </trkpt>
      <trkpt lat="58.57174322322" lon="15.940312104057">
        <ele>0</ele>
        <time>2019-12-23T16:10:33Z</time>
      </trkpt>
      <trkpt lat="58.571609783372" lon="15.940403718224">
        <ele>0</ele>
        <time>2019-12-23T16:10:38Z</time>
      </trkpt>
      <trkpt lat="58.571478438999" lon="15.940517125331">
        <ele>0</ele>
        <time>2019-12-23T16:10:43Z</time>
      </trkpt>
      <trkpt lat="58.571296803226" lon="15.940657522156">
        <ele>0</ele>
        <time>2019-12-23T16:10:50Z</time>
      </trkpt>
      <trkpt lat="58.571116760014" lon="15.940788363615">
        <ele>0</ele>
        <time>2019-12-23T16:10:58Z</time>
      </trkpt>
      <trkpt lat="58.571071413935" lon="15.940825746889">
        <ele>0</ele>
        <time>2019-12-23T16:11:00Z</time>
      </trkpt>
      <trkpt lat="58.570881144805" lon="15.940966562809">
        <ele>0</ele>
        <time>2019-12-23T16:11:08Z</time>
      </trkpt>
      <trkpt lat="58.5708564182" lon="15.940981063496">
        <ele>0</ele>
        <time>2019-12-23T16:11:09Z</time>
      </trkpt>
      <trkpt lat="58.570663131586" lon="15.941103020141">
        <ele>0</ele>
        <time>2019-12-23T16:11:17Z</time>
      </trkpt>
      <trkpt lat="58.570614851842" lon="15.941133446438">
        <ele>0</ele>
        <time>2019-12-23T16:11:19Z</time>
      </trkpt>
      <trkpt lat="58.570434138078" lon="15.941242327319">
        <ele>0</ele>
        <time>2019-12-23T16:11:26Z</time>
      </trkpt>
      <trkpt lat="58.570250490649" lon="15.94138557399">
        <ele>0</ele>
        <time>2019-12-23T16:11:33Z</time>
      </trkpt>
      <trkpt lat="58.570225344949" lon="15.941406444921">
        <ele>0</ele>
        <time>2019-12-23T16:11:34Z</time>
      </trkpt>
      <trkpt lat="58.570070615075" lon="15.941522282779">
        <ele>0</ele>
        <time>2019-12-23T16:11:40Z</time>
      </trkpt>
      <trkpt lat="58.569883614886" lon="15.9416613385">
        <ele>0</ele>
        <time>2019-12-23T16:11:47Z</time>
      </trkpt>
      <trkpt lat="58.569695860326" lon="15.941805758637">
        <ele>0</ele>
        <time>2019-12-23T16:11:54Z</time>
      </trkpt>
      <trkpt lat="58.569521516806" lon="15.94194883767">
        <ele>0</ele>
        <time>2019-12-23T16:12:01Z</time>
      </trkpt>
      <trkpt lat="58.5694985504" lon="15.94197230699">
        <ele>0</ele>
        <time>2019-12-23T16:12:02Z</time>
      </trkpt>
      <trkpt lat="58.569330660943" lon="15.942140615542">
        <ele>0</ele>
        <time>2019-12-23T16:12:09Z</time>
      </trkpt>
      <trkpt lat="58.569169896101" lon="15.942348235205">
        <ele>0</ele>
        <time>2019-12-23T16:12:16Z</time>
      </trkpt>
      <trkpt lat="58.569082724341" lon="15.942690300544">
        <ele>0</ele>
        <time>2019-12-23T16:12:23Z</time>
      </trkpt>
      <trkpt lat="58.569039306099" lon="15.94276523473">
        <ele>0</ele>
        <time>2019-12-23T16:12:25Z</time>
      </trkpt>
      <trkpt lat="58.568986583948" lon="15.942809826438">
        <ele>0</ele>
        <time>2019-12-23T16:12:27Z</time>
      </trkpt>
      <trkpt lat="58.568792207687" lon="15.942921054251">
        <ele>0</ele>
        <time>2019-12-23T16:12:34Z</time>
      </trkpt>
      <trkpt lat="58.56859833434" lon="15.943053069176">
        <ele>0</ele>
        <time>2019-12-23T16:12:41Z</time>
      </trkpt>
      <trkpt lat="58.568419464594" lon="15.94317510964">
        <ele>0</ele>
        <time>2019-12-23T16:12:48Z</time>
      </trkpt>
      <trkpt lat="58.568242774142" lon="15.943310225868">
        <ele>0</ele>
        <time>2019-12-23T16:12:55Z</time>
      </trkpt>
      <trkpt lat="58.568216203519" lon="15.943326654392">
        <ele>0</ele>
        <time>2019-12-23T16:12:56Z</time>
      </trkpt>
      <trkpt lat="58.568028448959" lon="15.943432266332">
        <ele>0</ele>
        <time>2019-12-23T16:13:03Z</time>
      </trkpt>
      <trkpt lat="58.567837760734" lon="15.943552462778">
        <ele>0</ele>
        <time>2019-12-23T16:13:10Z</time>
      </trkpt>
      <trkpt lat="58.567649587079" lon="15.943679867658">
        <ele>0</ele>
        <time>2019-12-23T16:13:17Z</time>
      </trkpt>
      <trkpt lat="58.56744917585" lon="15.943793190946">
        <ele>0</ele>
        <time>2019-12-23T16:13:24Z</time>
      </trkpt>
      <trkpt lat="58.567366027402" lon="15.943843566165">
        <ele>0</ele>
        <time>2019-12-23T16:13:27Z</time>
      </trkpt>
      <trkpt lat="58.567184643086" lon="15.943936521436">
        <ele>0</ele>
        <time>2019-12-23T16:13:34Z</time>
      </trkpt>
      <trkpt lat="58.567001750028" lon="15.944059651547">
        <ele>0</ele>
        <time>2019-12-23T16:13:41Z</time>
      </trkpt>
      <trkpt lat="58.566810391251" lon="15.944192588481">
        <ele>0</ele>
        <time>2019-12-23T16:13:48Z</time>
      </trkpt>
      <trkpt lat="58.566621798501" lon="15.944331979478">
        <ele>0</ele>
        <time>2019-12-23T16:13:55Z</time>
      </trkpt>
      <trkpt lat="58.566436977606" lon="15.944421079075">
        <ele>0</ele>
        <time>2019-12-23T16:14:02Z</time>
      </trkpt>
      <trkpt lat="58.566255006557" lon="15.944505400989">
        <ele>0</ele>
        <time>2019-12-23T16:14:09Z</time>
      </trkpt>
      <trkpt lat="58.566066665264" lon="15.944613024585">
        <ele>0</ele>
        <time>2019-12-23T16:14:16Z</time>
      </trkpt>
      <trkpt lat="58.565880167989" lon="15.944735148868">
        <ele>0</ele>
        <time>2019-12-23T16:14:23Z</time>
      </trkpt>
      <trkpt lat="58.565686713737" lon="15.944849561803">
        <ele>0</ele>
        <time>2019-12-23T16:14:30Z</time>
      </trkpt>
      <trkpt lat="58.565495187322" lon="15.944985432402">
        <ele>0</ele>
        <time>2019-12-23T16:14:37Z</time>
      </trkpt>
      <trkpt lat="58.565302487441" lon="15.945083081537">
        <ele>0</ele>
        <time>2019-12-23T16:14:44Z</time>
      </trkpt>
      <trkpt lat="58.565203329564" lon="15.945146448701">
        <ele>0</ele>
        <time>2019-12-23T16:14:48Z</time>
      </trkpt>
      <trkpt lat="58.56515421163" lon="15.94517838374">
        <ele>0</ele>
        <time>2019-12-23T16:14:50Z</time>
      </trkpt>
      <trkpt lat="58.564972743495" lon="15.94530662681">
        <ele>0</ele>
        <time>2019-12-23T16:14:57Z</time>
      </trkpt>
      <trkpt lat="58.564785994763" lon="15.94542900255">
        <ele>0</ele>
        <time>2019-12-23T16:15:04Z</time>
      </trkpt>
      <trkpt lat="58.564592205235" lon="15.945527573694">
        <ele>0</ele>
        <time>2019-12-23T16:15:11Z</time>
      </trkpt>
      <trkpt lat="58.564431272755" lon="15.945618098214">
        <ele>0</ele>
        <time>2019-12-23T16:15:17Z</time>
      </trkpt>
      <trkpt lat="58.564241757996" lon="15.945752208614">
        <ele>0</ele>
        <time>2019-12-23T16:15:24Z</time>
      </trkpt>
      <trkpt lat="58.564046627364" lon="15.945881038417">
        <ele>0</ele>
        <time>2019-12-23T16:15:31Z</time>
      </trkpt>
      <trkpt lat="58.563858453709" lon="15.946017914844">
        <ele>0</ele>
        <time>2019-12-23T16:15:38Z</time>
      </trkpt>
      <trkpt lat="58.56380221116" lon="15.946059237611">
        <ele>0</ele>
        <time>2019-12-23T16:15:40Z</time>
      </trkpt>
      <trkpt lat="58.563632645323" lon="15.946173482908">
        <ele>0</ele>
        <time>2019-12-23T16:15:46Z</time>
      </trkpt>
      <trkpt lat="58.563442460012" lon="15.946286806196">
        <ele>0</ele>
        <time>2019-12-23T16:15:53Z</time>
      </trkpt>
      <trkpt lat="58.563245066267" lon="15.946401973502">
        <ele>0</ele>
        <time>2019-12-23T16:16:00Z</time>
      </trkpt>
      <trkpt lat="58.563074075507" lon="15.946508172175">
        <ele>0</ele>
        <time>2019-12-23T16:16:06Z</time>
      </trkpt>
      <trkpt lat="58.562900905453" lon="15.946611269545">
        <ele>0</ele>
        <time>2019-12-23T16:16:12Z</time>
      </trkpt>
      <trkpt lat="58.562787749803" lon="15.946669859026">
        <ele>0</ele>
        <time>2019-12-23T16:16:16Z</time>
      </trkpt>
      <trkpt lat="58.562588092945" lon="15.946777231165">
        <ele>0</ele>
        <time>2019-12-23T16:16:23Z</time>
      </trkpt>
      <trkpt lat="58.562501591737" lon="15.946830204773">
        <ele>0</ele>
        <time>2019-12-23T16:16:26Z</time>
      </trkpt>
      <trkpt lat="58.562326661484" lon="15.946944030975">
        <ele>0</ele>
        <time>2019-12-23T16:16:32Z</time>
      </trkpt>
      <trkpt lat="58.56215013867" lon="15.947057270444">
        <ele>0</ele>
        <time>2019-12-23T16:16:38Z</time>
      </trkpt>
      <trkpt lat="58.562119628554" lon="15.947077219366">
        <ele>0</ele>
        <time>2019-12-23T16:16:39Z</time>
      </trkpt>
      <trkpt lat="58.561948889251" lon="15.947184675324">
        <ele>0</ele>
        <time>2019-12-23T16:16:45Z</time>
      </trkpt>
      <trkpt lat="58.561863561509" lon="15.947238822398">
        <ele>0</ele>
        <time>2019-12-23T16:16:48Z</time>
      </trkpt>
      <trkpt lat="58.561691732559" lon="15.947353067695">
        <ele>0</ele>
        <time>2019-12-23T16:16:54Z</time>
      </trkpt>
      <trkpt lat="58.561519233057" lon="15.947454153409">
        <ele>0</ele>
        <time>2019-12-23T16:17:00Z</time>
      </trkpt>
      <trkpt lat="58.561337764922" lon="15.94756890162">
        <ele>0</ele>
        <time>2019-12-23T16:17:06Z</time>
      </trkpt>
      <trkpt lat="58.561166019791" lon="15.947680632347">
        <ele>0</ele>
        <time>2019-12-23T16:17:12Z</time>
      </trkpt>
      <trkpt lat="58.560992933556" lon="15.947803678639">
        <ele>0</ele>
        <time>2019-12-23T16:17:18Z</time>
      </trkpt>
      <trkpt lat="58.560819009131" lon="15.947930496786">
        <ele>0</ele>
        <time>2019-12-23T16:17:24Z</time>
      </trkpt>
      <trkpt lat="58.560645000887" lon="15.94803325888">
        <ele>0</ele>
        <time>2019-12-23T16:17:30Z</time>
      </trkpt>
      <trkpt lat="58.560528660115" lon="15.948111378188">
        <ele>0</ele>
        <time>2019-12-23T16:17:34Z</time>
      </trkpt>
      <trkpt lat="58.56033126637" lon="15.948238531611">
        <ele>0</ele>
        <time>2019-12-23T16:17:41Z</time>
      </trkpt>
      <trkpt lat="58.560155665565" lon="15.94834674194">
        <ele>0</ele>
        <time>2019-12-23T16:17:47Z</time>
      </trkpt>
      <trkpt lat="58.559978723656" lon="15.948460987237">
        <ele>0</ele>
        <time>2019-12-23T16:17:53Z</time>
      </trkpt>
      <trkpt lat="58.559795579141" lon="15.948588895031">
        <ele>0</ele>
        <time>2019-12-23T16:17:59Z</time>
      </trkpt>
      <trkpt lat="58.559595419369" lon="15.948704397613">
        <ele>0</ele>
        <time>2019-12-23T16:18:06Z</time>
      </trkpt>
      <trkpt lat="58.559400624013" lon="15.948800538006">
        <ele>0</ele>
        <time>2019-12-23T16:18:13Z</time>
      </trkpt>
      <trkpt lat="58.559205241924" lon="15.948922494651">
        <ele>0</ele>
        <time>2019-12-23T16:18:20Z</time>
      </trkpt>
      <trkpt lat="58.55903207187" lon="15.949051911187">
        <ele>0</ele>
        <time>2019-12-23T16:18:26Z</time>
      </trkpt>
      <trkpt lat="58.558866864621" lon="15.949184680483">
        <ele>0</ele>
        <time>2019-12-23T16:18:32Z</time>
      </trkpt>
      <trkpt lat="58.558693359291" lon="15.949362125306">
        <ele>0</ele>
        <time>2019-12-23T16:18:39Z</time>
      </trkpt>
      <trkpt lat="58.558522703807" lon="15.949573265367">
        <ele>0</ele>
        <time>2019-12-23T16:18:46Z</time>
      </trkpt>
      <trkpt lat="58.558375601462" lon="15.949767138714">
        <ele>0</ele>
        <time>2019-12-23T16:18:52Z</time>
      </trkpt>
      <trkpt lat="58.558210226575" lon="15.949999317344">
        <ele>0</ele>
        <time>2019-12-23T16:18:59Z</time>
      </trkpt>
      <trkpt lat="58.558048288267" lon="15.950236273657">
        <ele>0</ele>
        <time>2019-12-23T16:19:06Z</time>
      </trkpt>
      <trkpt lat="58.557907807623" lon="15.950451101754">
        <ele>0</ele>
        <time>2019-12-23T16:19:12Z</time>
      </trkpt>
      <trkpt lat="58.557764812409" lon="15.950675569036">
        <ele>0</ele>
        <time>2019-12-23T16:19:18Z</time>
      </trkpt>
      <trkpt lat="58.557615195494" lon="15.950888888391">
        <ele>0</ele>
        <time>2019-12-23T16:19:24Z</time>
      </trkpt>
      <trkpt lat="58.557439594689" lon="15.950994416512">
        <ele>0</ele>
        <time>2019-12-23T16:19:30Z</time>
      </trkpt>
      <trkpt lat="58.557249828473" lon="15.951092820018">
        <ele>0</ele>
        <time>2019-12-23T16:19:36Z</time>
      </trkpt>
      <trkpt lat="58.557179085237" lon="15.951201868537">
        <ele>0</ele>
        <time>2019-12-23T16:19:39Z</time>
      </trkpt>
      <trkpt lat="58.557181515988" lon="15.951312509617">
        <ele>0</ele>
        <time>2019-12-23T16:19:41Z</time>
      </trkpt>
      <trkpt lat="58.557196351951" lon="15.951656418974">
        <ele>0</ele>
        <time>2019-12-23T16:19:47Z</time>
      </trkpt>
      <trkpt lat="58.557181767445" lon="15.951702435605">
        <ele>0</ele>
        <time>2019-12-23T16:19:48Z</time>
      </trkpt>
      <trkpt lat="58.557071126365" lon="15.951991024422">
        <ele>0</ele>
        <time>2019-12-23T16:19:55Z</time>
      </trkpt>
      <trkpt lat="58.557031144702" lon="15.952073083223">
        <ele>0</ele>
        <time>2019-12-23T16:19:57Z</time>
      </trkpt>
      <trkpt lat="58.556873648801" lon="15.952326970974">
        <ele>0</ele>
        <time>2019-12-23T16:20:04Z</time>
      </trkpt>
      <trkpt lat="58.556823189763" lon="15.952391427785">
        <ele>0</ele>
        <time>2019-12-23T16:20:06Z</time>
      </trkpt>
      <trkpt lat="58.556750099595" lon="15.952483125771">
        <ele>0</ele>
        <time>2019-12-23T16:20:09Z</time>
      </trkpt>
      <trkpt lat="58.556567625632" lon="15.952638693835">
        <ele>0</ele>
        <time>2019-12-23T16:20:16Z</time>
      </trkpt>
      <trkpt lat="58.556403005116" lon="15.952788143112">
        <ele>0</ele>
        <time>2019-12-23T16:20:22Z</time>
      </trkpt>
      <trkpt lat="58.556348019852" lon="15.952853605751">
        <ele>0</ele>
        <time>2019-12-23T16:20:24Z</time>
      </trkpt>
      <trkpt lat="58.556184237526" lon="15.9530439587">
        <ele>0</ele>
        <time>2019-12-23T16:20:30Z</time>
      </trkpt>
      <trkpt lat="58.556010732196" lon="15.953206064646">
        <ele>0</ele>
        <time>2019-12-23T16:20:36Z</time>
      </trkpt>
      <trkpt lat="58.555821887989" lon="15.953361548891">
        <ele>0</ele>
        <time>2019-12-23T16:20:43Z</time>
      </trkpt>
      <trkpt lat="58.555651400143" lon="15.953511836358">
        <ele>0</ele>
        <time>2019-12-23T16:20:49Z</time>
      </trkpt>
      <trkpt lat="58.555474877329" lon="15.953643096912">
        <ele>0</ele>
        <time>2019-12-23T16:20:55Z</time>
      </trkpt>
      <trkpt lat="58.555294834117" lon="15.953706296438">
        <ele>0</ele>
        <time>2019-12-23T16:21:01Z</time>
      </trkpt>
      <trkpt lat="58.555226353994" lon="15.953782823185">
        <ele>0</ele>
        <time>2019-12-23T16:21:04Z</time>
      </trkpt>
      <trkpt lat="58.555195173326" lon="15.954130923492">
        <ele>0</ele>
        <time>2019-12-23T16:21:11Z</time>
      </trkpt>
      <trkpt lat="58.555203471407" lon="15.954189512973">
        <ele>0</ele>
        <time>2019-12-23T16:21:13Z</time>
      </trkpt>
      <trkpt lat="58.555246638192" lon="15.954273834887">
        <ele>0</ele>
        <time>2019-12-23T16:21:15Z</time>
      </trkpt>
      <trkpt lat="58.555256361196" lon="15.95438841546">
        <ele>0</ele>
        <time>2019-12-23T16:21:17Z</time>
      </trkpt>
      <trkpt lat="58.555108923575" lon="15.95462646142">
        <ele>0</ele>
        <time>2019-12-23T16:21:23Z</time>
      </trkpt>
      <trkpt lat="58.555040527271" lon="15.954734001197">
        <ele>0</ele>
        <time>2019-12-23T16:21:26Z</time>
      </trkpt>
      <trkpt lat="58.554993001898" lon="15.954835589825">
        <ele>0</ele>
        <time>2019-12-23T16:21:29Z</time>
      </trkpt>
      <trkpt lat="58.55507665326" lon="15.954830225409">
        <ele>0</ele>
        <time>2019-12-23T16:21:34Z</time>
      </trkpt>
      <trkpt lat="58.555265497467" lon="15.954725703116">
        <ele>0</ele>
        <time>2019-12-23T16:21:41Z</time>
      </trkpt>
      <trkpt lat="58.555469345275" lon="15.95466753273">
        <ele>0</ele>
        <time>2019-12-23T16:21:49Z</time>
      </trkpt>
      <trkpt lat="58.555495915898" lon="15.954662671228">
        <ele>0</ele>
        <time>2019-12-23T16:21:50Z</time>
      </trkpt>
      <trkpt lat="58.555702613552" lon="15.954677255734">
        <ele>0</ele>
        <time>2019-12-23T16:21:57Z</time>
      </trkpt>
      <trkpt lat="58.555894894338" lon="15.954785549882">
        <ele>0</ele>
        <time>2019-12-23T16:22:05Z</time>
      </trkpt>
      <trkpt lat="58.556100669983" lon="15.954878169877">
        <ele>0</ele>
        <time>2019-12-23T16:22:13Z</time>
      </trkpt>
      <trkpt lat="58.556288676" lon="15.9549047405">
        <ele>0</ele>
        <time>2019-12-23T16:22:19Z</time>
      </trkpt>
      <trkpt lat="58.556478190759" lon="15.954886719415">
        <ele>0</ele>
        <time>2019-12-23T16:22:25Z</time>
      </trkpt>
      <trkpt lat="58.556675668323" lon="15.954895017496">
        <ele>0</ele>
        <time>2019-12-23T16:22:31Z</time>
      </trkpt>
      <trkpt lat="58.556872307697" lon="15.954902142111">
        <ele>0</ele>
        <time>2019-12-23T16:22:37Z</time>
      </trkpt>
      <trkpt lat="58.5569005547" lon="15.954899795179">
        <ele>0</ele>
        <time>2019-12-23T16:22:38Z</time>
      </trkpt>
      <trkpt lat="58.557087806346" lon="15.954888479614">
        <ele>0</ele>
        <time>2019-12-23T16:22:43Z</time>
      </trkpt>
      <trkpt lat="58.557190400802" lon="15.954906584518">
        <ele>0</ele>
        <time>2019-12-23T16:22:45Z</time>
      </trkpt>
      <trkpt lat="58.557395254438" lon="15.954969448768">
        <ele>0</ele>
        <time>2019-12-23T16:22:50Z</time>
      </trkpt>
      <trkpt lat="58.557570519967" lon="15.955109510317">
        <ele>0</ele>
        <time>2019-12-23T16:22:56Z</time>
      </trkpt>
      <trkpt lat="58.557735140483" lon="15.955264156372">
        <ele>0</ele>
        <time>2019-12-23T16:23:02Z</time>
      </trkpt>
      <trkpt lat="58.557908729632" lon="15.955402541541">
        <ele>0</ele>
        <time>2019-12-23T16:23:08Z</time>
      </trkpt>
      <trkpt lat="58.558002271636" lon="15.955499268667">
        <ele>0</ele>
        <time>2019-12-23T16:23:11Z</time>
      </trkpt>
      <trkpt lat="58.558176615156" lon="15.955660452604">
        <ele>0</ele>
        <time>2019-12-23T16:23:17Z</time>
      </trkpt>
      <trkpt lat="58.558268229323" lon="15.955745864165">
        <ele>0</ele>
        <time>2019-12-23T16:23:20Z</time>
      </trkpt>
      <trkpt lat="58.55839085652" lon="15.955849799725">
        <ele>0</ele>
        <time>2019-12-23T16:23:24Z</time>
      </trkpt>
      <trkpt lat="58.558448188716" lon="15.955906461369">
        <ele>0</ele>
        <time>2019-12-23T16:23:26Z</time>
      </trkpt>
      <trkpt lat="58.558618508924" lon="15.95607401555">
        <ele>0</ele>
        <time>2019-12-23T16:23:32Z</time>
      </trkpt>
      <trkpt lat="58.558670057609" lon="15.956126653882">
        <ele>0</ele>
        <time>2019-12-23T16:23:34Z</time>
      </trkpt>
      <trkpt lat="58.558851944839" lon="15.956306529456">
        <ele>0</ele>
        <time>2019-12-23T16:23:41Z</time>
      </trkpt>
      <trkpt lat="58.559022097409" lon="15.956483303727">
        <ele>0</ele>
        <time>2019-12-23T16:23:47Z</time>
      </trkpt>
      <trkpt lat="58.55905135024" lon="15.956510377264">
        <ele>0</ele>
        <time>2019-12-23T16:23:48Z</time>
      </trkpt>
      <trkpt lat="58.559230890538" lon="15.956687235354">
        <ele>0</ele>
        <time>2019-12-23T16:23:54Z</time>
      </trkpt>
      <trkpt lat="58.55940925737" lon="15.956823608867">
        <ele>0</ele>
        <time>2019-12-23T16:24:00Z</time>
      </trkpt>
      <trkpt lat="58.559591060781" lon="15.956942128933">
        <ele>0</ele>
        <time>2019-12-23T16:24:06Z</time>
      </trkpt>
      <trkpt lat="58.559647722425" lon="15.956982110596">
        <ele>0</ele>
        <time>2019-12-23T16:24:08Z</time>
      </trkpt>
      <trkpt lat="58.559829861112" lon="15.957082944853">
        <ele>0</ele>
        <time>2019-12-23T16:24:14Z</time>
      </trkpt>
      <trkpt lat="58.560010155781" lon="15.95716952988">
        <ele>0</ele>
        <time>2019-12-23T16:24:20Z</time>
      </trkpt>
      <trkpt lat="58.560193216477" lon="15.957220575651">
        <ele>0</ele>
        <time>2019-12-23T16:24:26Z</time>
      </trkpt>
      <trkpt lat="58.560398153932" lon="15.957237758546">
        <ele>0</ele>
        <time>2019-12-23T16:24:33Z</time>
      </trkpt>
      <trkpt lat="58.560586159949" lon="15.957250247577">
        <ele>0</ele>
        <time>2019-12-23T16:24:39Z</time>
      </trkpt>
      <trkpt lat="58.560747343886" lon="15.957306238669">
        <ele>0</ele>
        <time>2019-12-23T16:24:44Z</time>
      </trkpt>
      <trkpt lat="58.560927638555" lon="15.957340604459">
        <ele>0</ele>
        <time>2019-12-23T16:24:50Z</time>
      </trkpt>
      <trkpt lat="58.561120086979" lon="15.957387794556">
        <ele>0</ele>
        <time>2019-12-23T16:24:56Z</time>
      </trkpt>
      <trkpt lat="58.561316223439" lon="15.957416041559">
        <ele>0</ele>
        <time>2019-12-23T16:25:02Z</time>
      </trkpt>
      <trkpt lat="58.561505067646" lon="15.957464321303">
        <ele>0</ele>
        <time>2019-12-23T16:25:08Z</time>
      </trkpt>
      <trkpt lat="58.561695085319" lon="15.957511343762">
        <ele>0</ele>
        <time>2019-12-23T16:25:14Z</time>
      </trkpt>
      <trkpt lat="58.56188443244" lon="15.957561383705">
        <ele>0</ele>
        <time>2019-12-23T16:25:20Z</time>
      </trkpt>
      <trkpt lat="58.561946877595" lon="15.957576974039">
        <ele>0</ele>
        <time>2019-12-23T16:25:22Z</time>
      </trkpt>
      <trkpt lat="58.562133542508" lon="15.957616704245">
        <ele>0</ele>
        <time>2019-12-23T16:25:28Z</time>
      </trkpt>
      <trkpt lat="58.562319369231" lon="15.957637407538">
        <ele>0</ele>
        <time>2019-12-23T16:25:34Z</time>
      </trkpt>
      <trkpt lat="58.562509638361" lon="15.957632294579">
        <ele>0</ele>
        <time>2019-12-23T16:25:40Z</time>
      </trkpt>
      <trkpt lat="58.562708121753" lon="15.957604801947">
        <ele>0</ele>
        <time>2019-12-23T16:25:46Z</time>
      </trkpt>
      <trkpt lat="58.562898139426" lon="15.95755425909">
        <ele>0</ele>
        <time>2019-12-23T16:25:52Z</time>
      </trkpt>
      <trkpt lat="58.56308723509" lon="15.957525592992">
        <ele>0</ele>
        <time>2019-12-23T16:25:58Z</time>
      </trkpt>
      <trkpt lat="58.563269206139" lon="15.957472284108">
        <ele>0</ele>
        <time>2019-12-23T16:26:04Z</time>
      </trkpt>
      <trkpt lat="58.5634635824" lon="15.957422411803">
        <ele>0</ele>
        <time>2019-12-23T16:26:10Z</time>
      </trkpt>
      <trkpt lat="58.563654186806" lon="15.957364492874">
        <ele>0</ele>
        <time>2019-12-23T16:26:16Z</time>
      </trkpt>
      <trkpt lat="58.563852334922" lon="15.957289139593">
        <ele>0</ele>
        <time>2019-12-23T16:26:22Z</time>
      </trkpt>
      <trkpt lat="58.563884018504" lon="15.957278997494">
        <ele>0</ele>
        <time>2019-12-23T16:26:23Z</time>
      </trkpt>
      <trkpt lat="58.564072359797" lon="15.957214708321">
        <ele>0</ele>
        <time>2019-12-23T16:26:29Z</time>
      </trkpt>
      <trkpt lat="58.564168248733" lon="15.95717958816">
        <ele>0</ele>
        <time>2019-12-23T16:26:32Z</time>
      </trkpt>
      <trkpt lat="58.564342173158" lon="15.957103731965">
        <ele>0</ele>
        <time>2019-12-23T16:26:37Z</time>
      </trkpt>
      <trkpt lat="58.56454149474" lon="15.957058469705">
        <ele>0</ele>
        <time>2019-12-23T16:26:43Z</time>
      </trkpt>
      <trkpt lat="58.56474852767" lon="15.956987977926">
        <ele>0</ele>
        <time>2019-12-23T16:26:50Z</time>
      </trkpt>
      <trkpt lat="58.564939886447" lon="15.956922431468">
        <ele>0</ele>
        <time>2019-12-23T16:26:57Z</time>
      </trkpt>
      <trkpt lat="58.565135268536" lon="15.956849844214">
        <ele>0</ele>
        <time>2019-12-23T16:27:03Z</time>
      </trkpt>
      <trkpt lat="58.565330818263" lon="15.956760660798">
        <ele>0</ele>
        <time>2019-12-23T16:27:09Z</time>
      </trkpt>
      <trkpt lat="58.565527122361" lon="15.956687151535">
        <ele>0</ele>
        <time>2019-12-23T16:27:15Z</time>
      </trkpt>
      <trkpt lat="58.565710350695" lon="15.956609199865">
        <ele>0</ele>
        <time>2019-12-23T16:27:21Z</time>
      </trkpt>
      <trkpt lat="58.565904224042" lon="15.956549185461">
        <ele>0</ele>
        <time>2019-12-23T16:27:27Z</time>
      </trkpt>
      <trkpt lat="58.566091810964" lon="15.956484896288">
        <ele>0</ele>
        <time>2019-12-23T16:27:33Z</time>
      </trkpt>
      <trkpt lat="58.56628325356" lon="15.956416499984">
        <ele>0</ele>
        <time>2019-12-23T16:27:39Z</time>
      </trkpt>
      <trkpt lat="58.566476456355" lon="15.956353803372">
        <ele>0</ele>
        <time>2019-12-23T16:27:45Z</time>
      </trkpt>
      <trkpt lat="58.566684411294" lon="15.956288843647">
        <ele>0</ele>
        <time>2019-12-23T16:27:52Z</time>
      </trkpt>
      <trkpt lat="58.566866969076" lon="15.95622656613">
        <ele>0</ele>
        <time>2019-12-23T16:27:58Z</time>
      </trkpt>
      <trkpt lat="58.56704935922" lon="15.956150709935">
        <ele>0</ele>
        <time>2019-12-23T16:28:04Z</time>
      </trkpt>
      <trkpt lat="58.567238203427" lon="15.956088683875">
        <ele>0</ele>
        <time>2019-12-23T16:28:10Z</time>
      </trkpt>
      <trkpt lat="58.567425203616" lon="15.95603042967">
        <ele>0</ele>
        <time>2019-12-23T16:28:16Z</time>
      </trkpt>
      <trkpt lat="58.56761513747" lon="15.956018611191">
        <ele>0</ele>
        <time>2019-12-23T16:28:22Z</time>
      </trkpt>
      <trkpt lat="58.567701219583" lon="15.956065885107">
        <ele>0</ele>
        <time>2019-12-23T16:28:25Z</time>
      </trkpt>
      <trkpt lat="58.567875646922" lon="15.956283982145">
        <ele>0</ele>
        <time>2019-12-23T16:28:32Z</time>
      </trkpt>
      <trkpt lat="58.568006404562" lon="15.956530996738">
        <ele>0</ele>
        <time>2019-12-23T16:28:38Z</time>
      </trkpt>
      <trkpt lat="58.568088044268" lon="15.956600901784">
        <ele>0</ele>
        <time>2019-12-23T16:28:42Z</time>
      </trkpt>
      <trkpt lat="58.568127103922" lon="15.956591346418">
        <ele>0</ele>
        <time>2019-12-23T16:28:44Z</time>
      </trkpt>
      <trkpt lat="58.568275295914" lon="15.956442232417">
        <ele>0</ele>
        <time>2019-12-23T16:28:51Z</time>
      </trkpt>
      <trkpt lat="58.568347212616" lon="15.956351624078">
        <ele>0</ele>
        <time>2019-12-23T16:28:54Z</time>
      </trkpt>
      <trkpt lat="58.568492135667" lon="15.956123720217">
        <ele>0</ele>
        <time>2019-12-23T16:29:00Z</time>
      </trkpt>
      <trkpt lat="58.568611913018" lon="15.955818032324">
        <ele>0</ele>
        <time>2019-12-23T16:29:06Z</time>
      </trkpt>
      <trkpt lat="58.568767481082" lon="15.955562887288">
        <ele>0</ele>
        <time>2019-12-23T16:29:12Z</time>
      </trkpt>
      <trkpt lat="58.568943584801" lon="15.955356273453">
        <ele>0</ele>
        <time>2019-12-23T16:29:18Z</time>
      </trkpt>
      <trkpt lat="58.569108624412" lon="15.955204393425">
        <ele>0</ele>
        <time>2019-12-23T16:29:23Z</time>
      </trkpt>
      <trkpt lat="58.569273664023" lon="15.955001886721">
        <ele>0</ele>
        <time>2019-12-23T16:29:29Z</time>
      </trkpt>
      <trkpt lat="58.569435183236" lon="15.954795524343">
        <ele>0</ele>
        <time>2019-12-23T16:29:35Z</time>
      </trkpt>
      <trkpt lat="58.569584967789" lon="15.954537529461">
        <ele>0</ele>
        <time>2019-12-23T16:29:41Z</time>
      </trkpt>
      <trkpt lat="58.569711702117" lon="15.954237289803">
        <ele>0</ele>
        <time>2019-12-23T16:29:47Z</time>
      </trkpt>
      <trkpt lat="58.569839023178" lon="15.953938558887">
        <ele>0</ele>
        <time>2019-12-23T16:29:53Z</time>
      </trkpt>
      <trkpt lat="58.569939941254" lon="15.953633625365">
        <ele>0</ele>
        <time>2019-12-23T16:29:59Z</time>
      </trkpt>
      <trkpt lat="58.570058042225" lon="15.953337073743">
        <ele>0</ele>
        <time>2019-12-23T16:30:05Z</time>
      </trkpt>
      <trkpt lat="58.570186369114" lon="15.953052759695">
        <ele>0</ele>
        <time>2019-12-23T16:30:11Z</time>
      </trkpt>
      <trkpt lat="58.570315869469" lon="15.952740282463">
        <ele>0</ele>
        <time>2019-12-23T16:30:18Z</time>
      </trkpt>
      <trkpt lat="58.570458194131" lon="15.95246979855">
        <ele>0</ele>
        <time>2019-12-23T16:30:25Z</time>
      </trkpt>
      <trkpt lat="58.570479567976" lon="15.952427469955">
        <ele>0</ele>
        <time>2019-12-23T16:30:26Z</time>
      </trkpt>
      <trkpt lat="58.570611918177" lon="15.95219151947">
        <ele>0</ele>
        <time>2019-12-23T16:30:32Z</time>
      </trkpt>
      <trkpt lat="58.570780645824" lon="15.95198448654">
        <ele>0</ele>
        <time>2019-12-23T16:30:39Z</time>
      </trkpt>
      <trkpt lat="58.570956330448" lon="15.951815675074">
        <ele>0</ele>
        <time>2019-12-23T16:30:45Z</time>
      </trkpt>
      <trkpt lat="58.571122459706" lon="15.951578970218">
        <ele>0</ele>
        <time>2019-12-23T16:30:51Z</time>
      </trkpt>
      <trkpt lat="58.571144671741" lon="15.951530355198">
        <ele>0</ele>
        <time>2019-12-23T16:30:52Z</time>
      </trkpt>
      <trkpt lat="58.57121181076" lon="15.951372859297">
        <ele>0</ele>
        <time>2019-12-23T16:30:55Z</time>
      </trkpt>
      <trkpt lat="58.57129814433" lon="15.951025178085">
        <ele>0</ele>
        <time>2019-12-23T16:31:01Z</time>
      </trkpt>
      <trkpt lat="58.571359751295" lon="15.950664588747">
        <ele>0</ele>
        <time>2019-12-23T16:31:07Z</time>
      </trkpt>
      <trkpt lat="58.571473661316" lon="15.950331240584">
        <ele>0</ele>
        <time>2019-12-23T16:31:13Z</time>
      </trkpt>
      <trkpt lat="58.571633085054" lon="15.950083136344">
        <ele>0</ele>
        <time>2019-12-23T16:31:19Z</time>
      </trkpt>
      <trkpt lat="58.571779600666" lon="15.949861602727">
        <ele>0</ele>
        <time>2019-12-23T16:31:25Z</time>
      </trkpt>
      <trkpt lat="58.571935587825" lon="15.949639650015">
        <ele>0</ele>
        <time>2019-12-23T16:31:31Z</time>
      </trkpt>
      <trkpt lat="58.572088054586" lon="15.949418200217">
        <ele>0</ele>
        <time>2019-12-23T16:31:37Z</time>
      </trkpt>
      <trkpt lat="58.572244712297" lon="15.949193397659">
        <ele>0</ele>
        <time>2019-12-23T16:31:43Z</time>
      </trkpt>
      <trkpt lat="58.572392736651" lon="15.948966583445">
        <ele>0</ele>
        <time>2019-12-23T16:31:49Z</time>
      </trkpt>
      <trkpt lat="58.572535480408" lon="15.948747480579">
        <ele>0</ele>
        <time>2019-12-23T16:31:55Z</time>
      </trkpt>
      <trkpt lat="58.57265936489" lon="15.948536591975">
        <ele>0</ele>
        <time>2019-12-23T16:32:01Z</time>
      </trkpt>
      <trkpt lat="58.572810574366" lon="15.948330397235">
        <ele>0</ele>
        <time>2019-12-23T16:32:07Z</time>
      </trkpt>
      <trkpt lat="58.57297117157" lon="15.948130237463">
        <ele>0</ele>
        <time>2019-12-23T16:32:13Z</time>
      </trkpt>
      <trkpt lat="58.573116597535" lon="15.947924964732">
        <ele>0</ele>
        <time>2019-12-23T16:32:19Z</time>
      </trkpt>
      <trkpt lat="58.573126152901" lon="15.947531434527">
        <ele>0</ele>
        <time>2019-12-23T16:32:25Z</time>
      </trkpt>
      <trkpt lat="58.573104946694" lon="15.947393887548">
        <ele>0</ele>
        <time>2019-12-23T16:32:27Z</time>
      </trkpt>
      <trkpt lat="58.573059265339" lon="15.947024161939">
        <ele>0</ele>
        <time>2019-12-23T16:32:33Z</time>
      </trkpt>
      <trkpt lat="58.573016014735" lon="15.946667595913">
        <ele>0</ele>
        <time>2019-12-23T16:32:39Z</time>
      </trkpt>
      <trkpt lat="58.572965974792" lon="15.946294517544">
        <ele>0</ele>
        <time>2019-12-23T16:32:46Z</time>
      </trkpt>
      <trkpt lat="58.572945355318" lon="15.94595203311">
        <ele>0</ele>
        <time>2019-12-23T16:32:53Z</time>
      </trkpt>
      <trkpt lat="58.572941499644" lon="15.945906519393">
        <ele>0</ele>
        <time>2019-12-23T16:32:54Z</time>
      </trkpt>
      <trkpt lat="58.572886682018" lon="15.945575015248">
        <ele>0</ele>
        <time>2019-12-23T16:33:00Z</time>
      </trkpt>
      <trkpt lat="58.57281359185" lon="15.945223226905">
        <ele>0</ele>
        <time>2019-12-23T16:33:05Z</time>
      </trkpt>
      <trkpt lat="58.572787524141" lon="15.945079980234">
        <ele>0</ele>
        <time>2019-12-23T16:33:07Z</time>
      </trkpt>
      <trkpt lat="58.572731113954" lon="15.944776639273">
        <ele>0</ele>
        <time>2019-12-23T16:33:11Z</time>
      </trkpt>
      <trkpt lat="58.572693814499" lon="15.944431640269">
        <ele>0</ele>
        <time>2019-12-23T16:33:16Z</time>
      </trkpt>
      <trkpt lat="58.572687108979" lon="15.944366093811">
        <ele>0</ele>
        <time>2019-12-23T16:33:17Z</time>
      </trkpt>
      <trkpt lat="58.572673949396" lon="15.944005420654">
        <ele>0</ele>
        <time>2019-12-23T16:33:23Z</time>
      </trkpt>
      <trkpt lat="58.572633213362" lon="15.943621697272">
        <ele>0</ele>
        <time>2019-12-23T16:33:29Z</time>
      </trkpt>
      <trkpt lat="58.572607145653" lon="15.943394966877">
        <ele>0</ele>
        <time>2019-12-23T16:33:33Z</time>
      </trkpt>
      <trkpt lat="58.572563895049" lon="15.94305776304">
        <ele>0</ele>
        <time>2019-12-23T16:33:39Z</time>
      </trkpt>
      <trkpt lat="58.572520141531" lon="15.94266884288">
        <ele>0</ele>
        <time>2019-12-23T16:33:46Z</time>
      </trkpt>
      <trkpt lat="58.572468425208" lon="15.942287214973">
        <ele>0</ele>
        <time>2019-12-23T16:33:53Z</time>
      </trkpt>
      <trkpt lat="58.57240790789" lon="15.941936851553">
        <ele>0</ele>
        <time>2019-12-23T16:33:59Z</time>
      </trkpt>
      <trkpt lat="58.572345546554" lon="15.941590343807">
        <ele>0</ele>
        <time>2019-12-23T16:34:05Z</time>
      </trkpt>
      <trkpt lat="58.572283101399" lon="15.941245260984">
        <ele>0</ele>
        <time>2019-12-23T16:34:12Z</time>
      </trkpt>
      <trkpt lat="58.572249741437" lon="15.941080221373">
        <ele>0</ele>
        <time>2019-12-23T16:34:16Z</time>
      </trkpt>
      <trkpt lat="58.572218225493" lon="15.940847120734">
        <ele>0</ele>
        <time>2019-12-23T16:34:23Z</time>
      </trkpt>
      <trkpt lat="58.572123929118" lon="15.940558364279">
        <ele>0</ele>
        <time>2019-12-23T16:34:29Z</time>
      </trkpt>
      <trkpt lat="58.572054946081" lon="15.940390055727">
        <ele>0</ele>
        <time>2019-12-23T16:34:33Z</time>
      </trkpt>
      <trkpt lat="58.572038685195" lon="15.940190482688">
        <ele>0</ele>
        <time>2019-12-23T16:34:38Z</time>
      </trkpt>
      <trkpt lat="58.572127281878" lon="15.940066095292">
        <ele>0</ele>
        <time>2019-12-23T16:34:42Z</time>
      </trkpt>
      <trkpt lat="58.572300451932" lon="15.939862163665">
        <ele>0</ele>
        <time>2019-12-23T16:34:49Z</time>
      </trkpt>
      <trkpt lat="58.572467251742" lon="15.939712211474">
        <ele>0</ele>
        <time>2019-12-23T16:34:56Z</time>
      </trkpt>
      <trkpt lat="58.57263589557" lon="15.939593272313">
        <ele>0</ele>
        <time>2019-12-23T16:35:02Z</time>
      </trkpt>
      <trkpt lat="58.572816860791" lon="15.939446672882">
        <ele>0</ele>
        <time>2019-12-23T16:35:09Z</time>
      </trkpt>
      <trkpt lat="58.572978044728" lon="15.939310969921">
        <ele>0</ele>
        <time>2019-12-23T16:35:15Z</time>
      </trkpt>
      <trkpt lat="58.573151550058" lon="15.939164286671">
        <ele>0</ele>
        <time>2019-12-23T16:35:21Z</time>
      </trkpt>
      <trkpt lat="58.573328575786" lon="15.938997403042">
        <ele>0</ele>
        <time>2019-12-23T16:35:27Z</time>
      </trkpt>
      <trkpt lat="58.573460842168" lon="15.938892964568">
        <ele>0</ele>
        <time>2019-12-23T16:35:31Z</time>
      </trkpt>
      <trkpt lat="58.573647339443" lon="15.938768074258">
        <ele>0</ele>
        <time>2019-12-23T16:35:37Z</time>
      </trkpt>
      <trkpt lat="58.573818414022" lon="15.938642429577">
        <ele>0</ele>
        <time>2019-12-23T16:35:43Z</time>
      </trkpt>
      <trkpt lat="58.573999043967" lon="15.938500188734">
        <ele>0</ele>
        <time>2019-12-23T16:35:50Z</time>
      </trkpt>
      <trkpt lat="58.574142374457" lon="15.938349063077">
        <ele>0</ele>
        <time>2019-12-23T16:35:55Z</time>
      </trkpt>
      <trkpt lat="58.574309761" lon="15.938158626309">
        <ele>0</ele>
        <time>2019-12-23T16:36:01Z</time>
      </trkpt>
      <trkpt lat="58.574449571092" lon="15.937942792384">
        <ele>0</ele>
        <time>2019-12-23T16:36:07Z</time>
      </trkpt>
      <trkpt lat="58.574612179952" lon="15.93777716604">
        <ele>0</ele>
        <time>2019-12-23T16:36:13Z</time>
      </trkpt>
      <trkpt lat="58.574781913427" lon="15.937626962392">
        <ele>0</ele>
        <time>2019-12-23T16:36:20Z</time>
      </trkpt>
      <trkpt lat="58.574830360809" lon="15.937598966846">
        <ele>0</ele>
        <time>2019-12-23T16:36:22Z</time>
      </trkpt>
      <trkpt lat="58.575014846428" lon="15.937461336048">
        <ele>0</ele>
        <time>2019-12-23T16:36:29Z</time>
      </trkpt>
      <trkpt lat="58.575211485802" lon="15.9373111324">
        <ele>0</ele>
        <time>2019-12-23T16:36:36Z</time>
      </trkpt>
      <trkpt lat="58.575400832923" lon="15.937207615935">
        <ele>0</ele>
        <time>2019-12-23T16:36:42Z</time>
      </trkpt>
      <trkpt lat="58.575600657419" lon="15.937204263175">
        <ele>0</ele>
        <time>2019-12-23T16:36:49Z</time>
      </trkpt>
      <trkpt lat="58.575783718115" lon="15.937200826596">
        <ele>0</ele>
        <time>2019-12-23T16:36:55Z</time>
      </trkpt>
      <trkpt lat="58.57596434806" lon="15.937194372533">
        <ele>0</ele>
        <time>2019-12-23T16:37:01Z</time>
      </trkpt>
      <trkpt lat="58.576153443724" lon="15.937119103071">
        <ele>0</ele>
        <time>2019-12-23T16:37:07Z</time>
      </trkpt>
      <trkpt lat="58.576336588239" lon="15.937065961825">
        <ele>0</ele>
        <time>2019-12-23T16:37:13Z</time>
      </trkpt>
      <trkpt lat="58.576536999468" lon="15.937023549411">
        <ele>0</ele>
        <time>2019-12-23T16:37:20Z</time>
      </trkpt>
      <trkpt lat="58.57657874133" lon="15.937046767274">
        <ele>0</ele>
        <time>2019-12-23T16:37:22Z</time>
      </trkpt>
      <trkpt lat="58.576722742372" lon="15.937259416077">
        <ele>0</ele>
        <time>2019-12-23T16:37:28Z</time>
      </trkpt>
      <trkpt lat="58.576832629081" lon="15.93757516225">
        <ele>0</ele>
        <time>2019-12-23T16:37:34Z</time>
      </trkpt>
      <trkpt lat="58.576890715648" lon="15.937814800771">
        <ele>0</ele>
        <time>2019-12-23T16:37:38Z</time>
      </trkpt>
      <trkpt lat="58.576967326214" lon="15.938153429531">
        <ele>0</ele>
        <time>2019-12-23T16:37:44Z</time>
      </trkpt>
      <trkpt lat="58.577036728346" lon="15.938524580063">
        <ele>0</ele>
        <time>2019-12-23T16:37:51Z</time>
      </trkpt>
      <trkpt lat="58.577107890677" lon="15.938844014272">
        <ele>0</ele>
        <time>2019-12-23T16:37:57Z</time>
      </trkpt>
      <trkpt lat="58.577177460447" lon="15.939175853693">
        <ele>0</ele>
        <time>2019-12-23T16:38:03Z</time>
      </trkpt>
      <trkpt lat="58.577247868407" lon="15.939510878236">
        <ele>0</ele>
        <time>2019-12-23T16:38:09Z</time>
      </trkpt>
      <trkpt lat="58.577340320764" lon="15.9398173205">
        <ele>0</ele>
        <time>2019-12-23T16:38:15Z</time>
      </trkpt>
      <trkpt lat="58.577469569662" lon="15.940064670369">
        <ele>0</ele>
        <time>2019-12-23T16:38:21Z</time>
      </trkpt>
      <trkpt lat="58.577632681436" lon="15.940249323626">
        <ele>0</ele>
        <time>2019-12-23T16:38:27Z</time>
      </trkpt>
      <trkpt lat="58.577798140142" lon="15.940395252505">
        <ele>0</ele>
        <time>2019-12-23T16:38:33Z</time>
      </trkpt>
      <trkpt lat="58.577987068168" lon="15.94053062019">
        <ele>0</ele>
        <time>2019-12-23T16:38:40Z</time>
      </trkpt>
      <trkpt lat="58.578174403633" lon="15.940631538266">
        <ele>0</ele>
        <time>2019-12-23T16:38:47Z</time>
      </trkpt>
      <trkpt lat="58.578373892853" lon="15.940713177972">
        <ele>0</ele>
        <time>2019-12-23T16:38:54Z</time>
      </trkpt>
      <trkpt lat="58.578560557766" lon="15.940781825733">
        <ele>0</ele>
        <time>2019-12-23T16:39:00Z</time>
      </trkpt>
      <trkpt lat="58.578755353122" lon="15.940817364989">
        <ele>0</ele>
        <time>2019-12-23T16:39:06Z</time>
      </trkpt>
      <trkpt lat="58.578787036704" lon="15.940818873731">
        <ele>0</ele>
        <time>2019-12-23T16:39:07Z</time>
      </trkpt>
      <trkpt lat="58.57897345016" lon="15.940816275342">
        <ele>0</ele>
        <time>2019-12-23T16:39:13Z</time>
      </trkpt>
      <trkpt lat="58.579115523365" lon="15.940795152954">
        <ele>0</ele>
        <time>2019-12-23T16:39:18Z</time>
      </trkpt>
      <trkpt lat="58.579322304838" lon="15.940786854873">
        <ele>0</ele>
        <time>2019-12-23T16:39:25Z</time>
      </trkpt>
      <trkpt lat="58.579513663615" lon="15.940745615925">
        <ele>0</ele>
        <time>2019-12-23T16:39:31Z</time>
      </trkpt>
      <trkpt lat="58.579717176147" lon="15.940733881265">
        <ele>0</ele>
        <time>2019-12-23T16:39:38Z</time>
      </trkpt>
      <trkpt lat="58.579922365059" lon="15.940808731632">
        <ele>0</ele>
        <time>2019-12-23T16:39:45Z</time>
      </trkpt>
      <trkpt lat="58.58011087399" lon="15.940927000241">
        <ele>0</ele>
        <time>2019-12-23T16:39:52Z</time>
      </trkpt>
      <trkpt lat="58.580294689057" lon="15.941045855583">
        <ele>0</ele>
        <time>2019-12-23T16:39:59Z</time>
      </trkpt>
      <trkpt lat="58.580397451151" lon="15.941105450892">
        <ele>0</ele>
        <time>2019-12-23T16:40:03Z</time>
      </trkpt>
      <trkpt lat="58.580579086924" lon="15.941173763377">
        <ele>0</ele>
        <time>2019-12-23T16:40:10Z</time>
      </trkpt>
      <trkpt lat="58.580744713268" lon="15.94121542142">
        <ele>0</ele>
        <time>2019-12-23T16:40:16Z</time>
      </trkpt>
      <trkpt lat="58.580946214144" lon="15.941237633455">
        <ele>0</ele>
        <time>2019-12-23T16:40:23Z</time>
      </trkpt>
      <trkpt lat="58.580977981545" lon="15.941234615971">
        <ele>0</ele>
        <time>2019-12-23T16:40:24Z</time>
      </trkpt>
      <trkpt lat="58.581161796612" lon="15.941152640989">
        <ele>0</ele>
        <time>2019-12-23T16:40:31Z</time>
      </trkpt>
      <trkpt lat="58.581189121606" lon="15.941107797824">
        <ele>0</ele>
        <time>2019-12-23T16:40:32Z</time>
      </trkpt>
      <trkpt lat="58.581189708339" lon="15.9408734399">
        <ele>0</ele>
        <time>2019-12-23T16:40:36Z</time>
      </trkpt>
      <trkpt lat="58.581106727529" lon="15.940549982379">
        <ele>0</ele>
        <time>2019-12-23T16:40:42Z</time>
      </trkpt>
      <trkpt lat="58.581041181071" lon="15.940326856201">
        <ele>0</ele>
        <time>2019-12-23T16:40:46Z</time>
      </trkpt>
      <trkpt lat="58.580952500569" lon="15.939976911876">
        <ele>0</ele>
        <time>2019-12-23T16:40:52Z</time>
      </trkpt>
      <trkpt lat="58.5809230801" lon="15.939866103158">
        <ele>0</ele>
        <time>2019-12-23T16:40:54Z</time>
      </trkpt>
      <trkpt lat="58.580833980503" lon="15.939538873782">
        <ele>0</ele>
        <time>2019-12-23T16:41:00Z</time>
      </trkpt>
      <trkpt lat="58.580771032434" lon="15.93920041266">
        <ele>0</ele>
        <time>2019-12-23T16:41:06Z</time>
      </trkpt>
      <trkpt lat="58.580725602536" lon="15.938810402853">
        <ele>0</ele>
        <time>2019-12-23T16:41:13Z</time>
      </trkpt>
      <trkpt lat="58.580697271714" lon="15.938466744953">
        <ele>0</ele>
        <time>2019-12-23T16:41:19Z</time>
      </trkpt>
      <trkpt lat="58.580676065507" lon="15.938076735146">
        <ele>0</ele>
        <time>2019-12-23T16:41:26Z</time>
      </trkpt>
      <trkpt lat="58.580658882612" lon="15.937683037303">
        <ele>0</ele>
        <time>2019-12-23T16:41:33Z</time>
      </trkpt>
      <trkpt lat="58.580744880906" lon="15.937342061611">
        <ele>0</ele>
        <time>2019-12-23T16:41:40Z</time>
      </trkpt>
      <trkpt lat="58.580765248923" lon="15.937265953959">
        <ele>0</ele>
        <time>2019-12-23T16:41:42Z</time>
      </trkpt>
      <trkpt lat="58.580672628928" lon="15.936947693216">
        <ele>0</ele>
        <time>2019-12-23T16:41:49Z</time>
      </trkpt>
      <trkpt lat="58.580623510994" lon="15.936806877296">
        <ele>0</ele>
        <time>2019-12-23T16:41:52Z</time>
      </trkpt>
      <trkpt lat="58.580520581262" lon="15.936476462798">
        <ele>0</ele>
        <time>2019-12-23T16:41:59Z</time>
      </trkpt>
      <trkpt lat="58.580416980978" lon="15.936137750219">
        <ele>0</ele>
        <time>2019-12-23T16:42:06Z</time>
      </trkpt>
      <trkpt lat="58.580390577993" lon="15.936034736668">
        <ele>0</ele>
        <time>2019-12-23T16:42:08Z</time>
      </trkpt>
      <trkpt lat="58.580304412061" lon="15.935729886965">
        <ele>0</ele>
        <time>2019-12-23T16:42:14Z</time>
      </trkpt>
      <trkpt lat="58.580279266361" lon="15.935347504687">
        <ele>0</ele>
        <time>2019-12-23T16:42:21Z</time>
      </trkpt>
      <trkpt lat="58.580262167285" lon="15.934996386896">
        <ele>0</ele>
        <time>2019-12-23T16:42:27Z</time>
      </trkpt>
      <trkpt lat="58.580410610734" lon="15.934754233805">
        <ele>0</ele>
        <time>2019-12-23T16:42:34Z</time>
      </trkpt>
      <trkpt lat="58.580569615377" lon="15.934642922173">
        <ele>0</ele>
        <time>2019-12-23T16:42:40Z</time>
      </trkpt>
      <trkpt lat="58.580750496779" lon="15.934472099051">
        <ele>0</ele>
        <time>2019-12-23T16:42:47Z</time>
      </trkpt>
      <trkpt lat="58.580777486497" lon="15.934445612247">
        <ele>0</ele>
        <time>2019-12-23T16:42:48Z</time>
      </trkpt>
      <trkpt lat="58.580940095357" lon="15.934244446647">
        <ele>0</ele>
        <time>2019-12-23T16:42:56Z</time>
      </trkpt>
      <trkpt lat="58.580983010685" lon="15.934006484506">
        <ele>0</ele>
        <time>2019-12-23T16:43:01Z</time>
      </trkpt>
      <trkpt lat="58.581033972637" lon="15.933638938191">
        <ele>0</ele>
        <time>2019-12-23T16:43:08Z</time>
      </trkpt>
      <trkpt lat="58.58108065982" lon="15.933488902181">
        <ele>0</ele>
        <time>2019-12-23T16:43:11Z</time>
      </trkpt>
      <trkpt lat="58.581180823525" lon="15.933197379699">
        <ele>0</ele>
        <time>2019-12-23T16:43:17Z</time>
      </trkpt>
      <trkpt lat="58.581313425183" lon="15.932918346248">
        <ele>0</ele>
        <time>2019-12-23T16:43:24Z</time>
      </trkpt>
      <trkpt lat="58.581480895545" lon="15.932737548665">
        <ele>0</ele>
        <time>2019-12-23T16:43:31Z</time>
      </trkpt>
      <trkpt lat="58.581679378937" lon="15.932644341937">
        <ele>0</ele>
        <time>2019-12-23T16:43:39Z</time>
      </trkpt>
      <trkpt lat="58.581738219875" lon="15.932615843477">
        <ele>0</ele>
        <time>2019-12-23T16:43:41Z</time>
      </trkpt>
      <trkpt lat="58.581924800969" lon="15.932524480767">
        <ele>0</ele>
        <time>2019-12-23T16:43:48Z</time>
      </trkpt>
      <trkpt lat="58.582132169175" lon="15.932422305406">
        <ele>0</ele>
        <time>2019-12-23T16:43:56Z</time>
      </trkpt>
      <trkpt lat="58.582313302034" lon="15.932375366766">
        <ele>0</ele>
        <time>2019-12-23T16:44:02Z</time>
      </trkpt>
      <trkpt lat="58.582500302223" lon="15.932312418697">
        <ele>0</ele>
        <time>2019-12-23T16:44:07Z</time>
      </trkpt>
      <trkpt lat="58.58268244091" lon="15.932258271623">
        <ele>0</ele>
        <time>2019-12-23T16:44:13Z</time>
      </trkpt>
      <trkpt lat="58.582856113878" lon="15.932144864516">
        <ele>0</ele>
        <time>2019-12-23T16:44:18Z</time>
      </trkpt>
      <trkpt lat="58.583032049959" lon="15.932071522891">
        <ele>0</ele>
        <time>2019-12-23T16:44:24Z</time>
      </trkpt>
      <trkpt lat="58.583235394853" lon="15.931991894841">
        <ele>0</ele>
        <time>2019-12-23T16:44:31Z</time>
      </trkpt>
      <trkpt lat="58.583401356473" lon="15.931861556296">
        <ele>0</ele>
        <time>2019-12-23T16:44:36Z</time>
      </trkpt>
      <trkpt lat="58.583562372772" lon="15.931843199935">
        <ele>0</ele>
        <time>2019-12-23T16:44:42Z</time>
      </trkpt>
      <trkpt lat="58.583722550881" lon="15.931677154496">
        <ele>0</ele>
        <time>2019-12-23T16:44:49Z</time>
      </trkpt>
      <trkpt lat="58.583757503404" lon="15.931622169232">
        <ele>0</ele>
        <time>2019-12-23T16:44:51Z</time>
      </trkpt>
      <trkpt lat="58.583830258296" lon="15.93151001941">
        <ele>0</ele>
        <time>2019-12-23T16:44:56Z</time>
      </trkpt>
      <trkpt lat="58.58387183252" lon="15.93135579245">
        <ele>0</ele>
        <time>2019-12-23T16:45:00Z</time>
      </trkpt>
      <trkpt lat="58.583879040954" lon="15.931300388091">
        <ele>0</ele>
        <time>2019-12-23T16:45:01Z</time>
      </trkpt>
      <trkpt lat="58.583904773387" lon="15.931154040117">
        <ele>0</ele>
        <time>2019-12-23T16:45:04Z</time>
      </trkpt>
      <trkpt lat="58.583981719229" lon="15.930817171556">
        <ele>0</ele>
        <time>2019-12-23T16:45:11Z</time>
      </trkpt>
      <trkpt lat="58.584058581252" lon="15.93048491304">
        <ele>0</ele>
        <time>2019-12-23T16:45:19Z</time>
      </trkpt>
      <trkpt lat="58.5840998202" lon="15.930324567293">
        <ele>0</ele>
        <time>2019-12-23T16:45:22Z</time>
      </trkpt>
      <trkpt lat="58.584198642801" lon="15.929998679021">
        <ele>0</ele>
        <time>2019-12-23T16:45:29Z</time>
      </trkpt>
      <trkpt lat="58.584266536191" lon="15.929655440216">
        <ele>0</ele>
        <time>2019-12-23T16:45:37Z</time>
      </trkpt>
      <trkpt lat="58.584250359124" lon="15.929336676559">
        <ele>0</ele>
        <time>2019-12-23T16:45:44Z</time>
      </trkpt>
      <trkpt lat="58.584217250619" lon="15.929229555877">
        <ele>0</ele>
        <time>2019-12-23T16:45:46Z</time>
      </trkpt>
      <trkpt lat="58.584204258674" lon="15.92919410044">
        <ele>0</ele>
        <time>2019-12-23T16:45:47Z</time>
      </trkpt>
      <trkpt lat="58.584121529321" lon="15.928882545217">
        <ele>0</ele>
        <time>2019-12-23T16:45:53Z</time>
      </trkpt>
      <trkpt lat="58.584086492979" lon="15.928506114088">
        <ele>0</ele>
        <time>2019-12-23T16:46:00Z</time>
      </trkpt>
      <trkpt lat="58.584072495206" lon="15.928404860736">
        <ele>0</ele>
        <time>2019-12-23T16:46:02Z</time>
      </trkpt>
      <trkpt lat="58.584007535481" lon="15.928169580803">
        <ele>0</ele>
        <time>2019-12-23T16:46:06Z</time>
      </trkpt>
      <trkpt lat="58.583951125294" lon="15.927835562088">
        <ele>0</ele>
        <time>2019-12-23T16:46:12Z</time>
      </trkpt>
      <trkpt lat="58.583870826692" lon="15.927489054342">
        <ele>0</ele>
        <time>2019-12-23T16:46:18Z</time>
      </trkpt>
      <trkpt lat="58.583886417026" lon="15.92711958019">
        <ele>0</ele>
        <time>2019-12-23T16:46:25Z</time>
      </trkpt>
      <trkpt lat="58.58388105261" lon="15.926961749013">
        <ele>0</ele>
        <time>2019-12-23T16:46:28Z</time>
      </trkpt>
      <trkpt lat="58.58387853804" lon="15.926866865905">
        <ele>0</ele>
        <time>2019-12-23T16:46:30Z</time>
      </trkpt>
      <trkpt lat="58.583866551923" lon="15.926634771094">
        <ele>0</ele>
        <time>2019-12-23T16:46:35Z</time>
      </trkpt>
      <trkpt lat="58.583866049009" lon="15.926584563513">
        <ele>0</ele>
        <time>2019-12-23T16:46:36Z</time>
      </trkpt>
      <trkpt lat="58.583865043181" lon="15.926477107555">
        <ele>0</ele>
        <time>2019-12-23T16:46:38Z</time>
      </trkpt>
      <trkpt lat="58.583879879144" lon="15.9262051149">
        <ele>0</ele>
        <time>2019-12-23T16:46:43Z</time>
      </trkpt>
      <trkpt lat="58.583786756235" lon="15.925988526604">
        <ele>0</ele>
        <time>2019-12-23T16:46:47Z</time>
      </trkpt>
      <trkpt lat="58.583759682698" lon="15.925972014261">
        <ele>0</ele>
        <time>2019-12-23T16:46:48Z</time>
      </trkpt>
      <trkpt lat="58.583560109659" lon="15.925946700923">
        <ele>0</ele>
        <time>2019-12-23T16:46:55Z</time>
      </trkpt>
      <trkpt lat="58.583354334014" lon="15.926044936791">
        <ele>0</ele>
        <time>2019-12-23T16:47:02Z</time>
      </trkpt>
      <trkpt lat="58.583173201155" lon="15.926065220989">
        <ele>0</ele>
        <time>2019-12-23T16:47:07Z</time>
      </trkpt>
      <trkpt lat="58.583107487059" lon="15.926078632029">
        <ele>0</ele>
        <time>2019-12-23T16:47:09Z</time>
      </trkpt>
      <trkpt lat="58.58296742551" lon="15.925860870267">
        <ele>0</ele>
        <time>2019-12-23T16:47:16Z</time>
      </trkpt>
      <trkpt lat="58.582954685022" lon="15.925738578346">
        <ele>0</ele>
        <time>2019-12-23T16:47:18Z</time>
      </trkpt>
      <trkpt lat="58.582937418308" lon="15.925484103862">
        <ele>0</ele>
        <time>2019-12-23T16:47:22Z</time>
      </trkpt>
      <trkpt lat="58.582902130509" lon="15.925102224498">
        <ele>0</ele>
        <time>2019-12-23T16:47:28Z</time>
      </trkpt>
      <trkpt lat="58.58288947384" lon="15.924913799386">
        <ele>0</ele>
        <time>2019-12-23T16:47:31Z</time>
      </trkpt>
      <trkpt lat="58.582855024231" lon="15.924528902538">
        <ele>0</ele>
        <time>2019-12-23T16:47:37Z</time>
      </trkpt>
      <trkpt lat="58.582842870476" lon="15.92419178252">
        <ele>0</ele>
        <time>2019-12-23T16:47:43Z</time>
      </trkpt>
      <trkpt lat="58.582833063653" lon="15.923822056911">
        <ele>0</ele>
        <time>2019-12-23T16:47:50Z</time>
      </trkpt>
      <trkpt lat="58.582813533826" lon="15.923476974088">
        <ele>0</ele>
        <time>2019-12-23T16:47:56Z</time>
      </trkpt>
      <trkpt lat="58.582799284596" lon="15.923125269564">
        <ele>0</ele>
        <time>2019-12-23T16:48:02Z</time>
      </trkpt>
      <trkpt lat="58.582800793338" lon="15.922736600861">
        <ele>0</ele>
        <time>2019-12-23T16:48:09Z</time>
      </trkpt>
      <trkpt lat="58.582803559365" lon="15.922369725098">
        <ele>0</ele>
        <time>2019-12-23T16:48:16Z</time>
      </trkpt>
      <trkpt lat="58.582796183293" lon="15.921986253173">
        <ele>0</ele>
        <time>2019-12-23T16:48:23Z</time>
      </trkpt>
      <trkpt lat="58.582785286823" lon="15.921711997405">
        <ele>0</ele>
        <time>2019-12-23T16:48:28Z</time>
      </trkpt>
      <trkpt lat="58.582775144724" lon="15.921356437207">
        <ele>0</ele>
        <time>2019-12-23T16:48:35Z</time>
      </trkpt>
      <trkpt lat="58.582785119185" lon="15.921144375137">
        <ele>0</ele>
        <time>2019-12-23T16:48:39Z</time>
      </trkpt>
      <trkpt lat="58.582774893267" lon="15.920785210722">
        <ele>0</ele>
        <time>2019-12-23T16:48:46Z</time>
      </trkpt>
      <trkpt lat="58.582735079242" lon="15.92043333856">
        <ele>0</ele>
        <time>2019-12-23T16:48:53Z</time>
      </trkpt>
      <trkpt lat="58.582704569126" lon="15.920281709989">
        <ele>0</ele>
        <time>2019-12-23T16:48:56Z</time>
      </trkpt>
      <trkpt lat="58.582588815087" lon="15.919998820864">
        <ele>0</ele>
        <time>2019-12-23T16:49:02Z</time>
      </trkpt>
      <trkpt lat="58.582473563962" lon="15.919725487105">
        <ele>0</ele>
        <time>2019-12-23T16:49:08Z</time>
      </trkpt>
      <trkpt lat="58.582471133211" lon="15.919669412194">
        <ele>0</ele>
        <time>2019-12-23T16:49:09Z</time>
      </trkpt>
      <trkpt lat="58.582618319375" lon="15.919424912171">
        <ele>0</ele>
        <time>2019-12-23T16:49:15Z</time>
      </trkpt>
      <trkpt lat="58.582777324018" lon="15.919227686064">
        <ele>0</ele>
        <time>2019-12-23T16:49:21Z</time>
      </trkpt>
      <trkpt lat="58.582804649012" lon="15.919194996654">
        <ele>0</ele>
        <time>2019-12-23T16:49:22Z</time>
      </trkpt>
      <trkpt lat="58.582962061094" lon="15.918991484122">
        <ele>0</ele>
        <time>2019-12-23T16:49:28Z</time>
      </trkpt>
      <trkpt lat="58.583106984145" lon="15.918762993528">
        <ele>0</ele>
        <time>2019-12-23T16:49:34Z</time>
      </trkpt>
      <trkpt lat="58.583212679904" lon="15.918475159082">
        <ele>0</ele>
        <time>2019-12-23T16:49:40Z</time>
      </trkpt>
      <trkpt lat="58.583334217454" lon="15.918150192819">
        <ele>0</ele>
        <time>2019-12-23T16:49:47Z</time>
      </trkpt>
      <trkpt lat="58.583363386466" lon="15.918036198979">
        <ele>0</ele>
        <time>2019-12-23T16:49:49Z</time>
      </trkpt>
      <trkpt lat="58.583446954009" lon="15.91771508839">
        <ele>0</ele>
        <time>2019-12-23T16:49:55Z</time>
      </trkpt>
      <trkpt lat="58.58350889625" lon="15.917373861241">
        <ele>0</ele>
        <time>2019-12-23T16:50:01Z</time>
      </trkpt>
      <trkpt lat="58.583562037496" lon="15.916993490619">
        <ele>0</ele>
        <time>2019-12-23T16:50:08Z</time>
      </trkpt>
      <trkpt lat="58.583560696392" lon="15.916615550748">
        <ele>0</ele>
        <time>2019-12-23T16:50:14Z</time>
      </trkpt>
      <trkpt lat="58.583578717477" lon="15.916272982495">
        <ele>0</ele>
        <time>2019-12-23T16:50:20Z</time>
      </trkpt>
      <trkpt lat="58.583577460192" lon="15.916036026182">
        <ele>0</ele>
        <time>2019-12-23T16:50:24Z</time>
      </trkpt>
      <trkpt lat="58.583578130744" lon="15.91568331583">
        <ele>0</ele>
        <time>2019-12-23T16:50:30Z</time>
      </trkpt>
      <trkpt lat="58.583561618401" lon="15.915314009316">
        <ele>0</ele>
        <time>2019-12-23T16:50:36Z</time>
      </trkpt>
      <trkpt lat="58.583550386655" lon="15.914928190459">
        <ele>0</ele>
        <time>2019-12-23T16:50:43Z</time>
      </trkpt>
      <trkpt lat="58.583535383054" lon="15.914568774587">
        <ele>0</ele>
        <time>2019-12-23T16:50:49Z</time>
      </trkpt>
      <trkpt lat="58.583527001154" lon="15.914397616189">
        <ele>0</ele>
        <time>2019-12-23T16:50:52Z</time>
      </trkpt>
      <trkpt lat="58.5835047053" lon="15.914031075702">
        <ele>0</ele>
        <time>2019-12-23T16:50:58Z</time>
      </trkpt>
      <trkpt lat="58.583514260666" lon="15.913671576011">
        <ele>0</ele>
        <time>2019-12-23T16:51:05Z</time>
      </trkpt>
      <trkpt lat="58.583522223471" lon="15.913364295557">
        <ele>0</ele>
        <time>2019-12-23T16:51:11Z</time>
      </trkpt>
      <trkpt lat="58.583503531834" lon="15.912994486129">
        <ele>0</ele>
        <time>2019-12-23T16:51:18Z</time>
      </trkpt>
      <trkpt lat="58.583471261519" lon="15.912683014725">
        <ele>0</ele>
        <time>2019-12-23T16:51:23Z</time>
      </trkpt>
      <trkpt lat="58.583431028399" lon="15.912320581369">
        <ele>0</ele>
        <time>2019-12-23T16:51:29Z</time>
      </trkpt>
      <trkpt lat="58.583375875497" lon="15.911992681441">
        <ele>0</ele>
        <time>2019-12-23T16:51:35Z</time>
      </trkpt>
      <trkpt lat="58.583337737852" lon="15.911807692908">
        <ele>0</ele>
        <time>2019-12-23T16:51:38Z</time>
      </trkpt>
      <trkpt lat="58.583261043467" lon="15.911445343371">
        <ele>0</ele>
        <time>2019-12-23T16:51:45Z</time>
      </trkpt>
      <trkpt lat="58.583166495635" lon="15.911140158392">
        <ele>0</ele>
        <time>2019-12-23T16:51:51Z</time>
      </trkpt>
      <trkpt lat="58.583149145102" lon="15.911092297743">
        <ele>0</ele>
        <time>2019-12-23T16:51:52Z</time>
      </trkpt>
      <trkpt lat="58.583020734394" lon="15.910782251262">
        <ele>0</ele>
        <time>2019-12-23T16:51:58Z</time>
      </trkpt>
      <trkpt lat="58.582913362255" lon="15.910604135887">
        <ele>0</ele>
        <time>2019-12-23T16:52:02Z</time>
      </trkpt>
      <trkpt lat="58.582746394807" lon="15.910384194831">
        <ele>0</ele>
        <time>2019-12-23T16:52:08Z</time>
      </trkpt>
      <trkpt lat="58.582665844748" lon="15.910281516556">
        <ele>0</ele>
        <time>2019-12-23T16:52:11Z</time>
      </trkpt>
      <trkpt lat="58.582490327762" lon="15.910079931861">
        <ele>0</ele>
        <time>2019-12-23T16:52:18Z</time>
      </trkpt>
      <trkpt lat="58.582359234846" lon="15.909994185024">
        <ele>0</ele>
        <time>2019-12-23T16:52:23Z</time>
      </trkpt>
      <trkpt lat="58.582159577988" lon="15.909997370146">
        <ele>0</ele>
        <time>2019-12-23T16:52:30Z</time>
      </trkpt>
      <trkpt lat="58.581977355482" lon="15.91005403179">
        <ele>0</ele>
        <time>2019-12-23T16:52:36Z</time>
      </trkpt>
      <trkpt lat="58.581777363348" lon="15.910141706464">
        <ele>0</ele>
        <time>2019-12-23T16:52:42Z</time>
      </trkpt>
      <trkpt lat="58.581590446978" lon="15.910196021176">
        <ele>0</ele>
        <time>2019-12-23T16:52:48Z</time>
      </trkpt>
      <trkpt lat="58.581526995995" lon="15.910217395021">
        <ele>0</ele>
        <time>2019-12-23T16:52:50Z</time>
      </trkpt>
      <trkpt lat="58.581332703553" lon="15.91028034309">
        <ele>0</ele>
        <time>2019-12-23T16:52:56Z</time>
      </trkpt>
      <trkpt lat="58.58124913601" lon="15.910294257044">
        <ele>0</ele>
        <time>2019-12-23T16:52:59Z</time>
      </trkpt>
      <trkpt lat="58.581059956527" lon="15.910335998906">
        <ele>0</ele>
        <time>2019-12-23T16:53:06Z</time>
      </trkpt>
      <trkpt lat="58.581023243805" lon="15.910393163464">
        <ele>0</ele>
        <time>2019-12-23T16:53:08Z</time>
      </trkpt>
      <trkpt lat="58.580946046506" lon="15.910706311248">
        <ele>0</ele>
        <time>2019-12-23T16:53:14Z</time>
      </trkpt>
      <trkpt lat="58.58091134544" lon="15.911094979951">
        <ele>0</ele>
        <time>2019-12-23T16:53:20Z</time>
      </trkpt>
      <trkpt lat="58.58091386001" lon="15.911468812691">
        <ele>0</ele>
        <time>2019-12-23T16:53:26Z</time>
      </trkpt>
      <trkpt lat="58.580920649349" lon="15.911814733704">
        <ele>0</ele>
        <time>2019-12-23T16:53:32Z</time>
      </trkpt>
      <trkpt lat="58.580938670434" lon="15.91219141629">
        <ele>0</ele>
        <time>2019-12-23T16:53:38Z</time>
      </trkpt>
      <trkpt lat="58.580947722886" lon="15.912563321193">
        <ele>0</ele>
        <time>2019-12-23T16:53:44Z</time>
      </trkpt>
      <trkpt lat="58.580938586615" lon="15.912924581083">
        <ele>0</ele>
        <time>2019-12-23T16:53:50Z</time>
      </trkpt>
      <trkpt lat="58.580914614381" lon="15.913284164593">
        <ele>0</ele>
        <time>2019-12-23T16:53:56Z</time>
      </trkpt>
      <trkpt lat="58.580899359323" lon="15.913645089207">
        <ele>0</ele>
        <time>2019-12-23T16:54:03Z</time>
      </trkpt>
      <trkpt lat="58.580907657404" lon="15.913740978143">
        <ele>0</ele>
        <time>2019-12-23T16:54:05Z</time>
      </trkpt>
      <trkpt lat="58.580907657404" lon="15.914125874991">
        <ele>0</ele>
        <time>2019-12-23T16:54:12Z</time>
      </trkpt>
      <trkpt lat="58.580728368563" lon="15.914264930712">
        <ele>0</ele>
        <time>2019-12-23T16:54:18Z</time>
      </trkpt>
      <trkpt lat="58.580542038926" lon="15.914339361984">
        <ele>0</ele>
        <time>2019-12-23T16:54:24Z</time>
      </trkpt>
      <trkpt lat="58.58035562547" lon="15.914400549854">
        <ele>0</ele>
        <time>2019-12-23T16:54:30Z</time>
      </trkpt>
      <trkpt lat="58.580232327721" lon="15.914459055516">
        <ele>0</ele>
        <time>2019-12-23T16:54:34Z</time>
      </trkpt>
      <trkpt lat="58.580047087731" lon="15.914530301666">
        <ele>0</ele>
        <time>2019-12-23T16:54:40Z</time>
      </trkpt>
      <trkpt lat="58.579862266836" lon="15.914576569754">
        <ele>0</ele>
        <time>2019-12-23T16:54:46Z</time>
      </trkpt>
      <trkpt lat="58.579687923316" lon="15.914699364589">
        <ele>0</ele>
        <time>2019-12-23T16:54:52Z</time>
      </trkpt>
      <trkpt lat="58.579513915072" lon="15.914814783352">
        <ele>0</ele>
        <time>2019-12-23T16:54:58Z</time>
      </trkpt>
      <trkpt lat="58.579319454992" lon="15.91489374085">
        <ele>0</ele>
        <time>2019-12-23T16:55:05Z</time>
      </trkpt>
      <trkpt lat="58.579141339617" lon="15.914953839073">
        <ele>0</ele>
        <time>2019-12-23T16:55:11Z</time>
      </trkpt>
      <trkpt lat="58.578944867881" lon="15.915020978092">
        <ele>0</ele>
        <time>2019-12-23T16:55:18Z</time>
      </trkpt>
      <trkpt lat="58.578738589322" lon="15.915083926161">
        <ele>0</ele>
        <time>2019-12-23T16:55:25Z</time>
      </trkpt>
      <trkpt lat="58.578540860301" lon="15.915174702138">
        <ele>0</ele>
        <time>2019-12-23T16:55:31Z</time>
      </trkpt>
      <trkpt lat="58.578377077975" lon="15.915227843384">
        <ele>0</ele>
        <time>2019-12-23T16:55:36Z</time>
      </trkpt>
      <trkpt lat="58.578178426945" lon="15.915307219977">
        <ele>0</ele>
        <time>2019-12-23T16:55:42Z</time>
      </trkpt>
      <trkpt lat="58.577974914413" lon="15.915392128624">
        <ele>0</ele>
        <time>2019-12-23T16:55:48Z</time>
      </trkpt>
      <trkpt lat="58.577791350803" lon="15.915455747245">
        <ele>0</ele>
        <time>2019-12-23T16:55:54Z</time>
      </trkpt>
      <trkpt lat="58.5776122296" lon="15.915489526302">
        <ele>0</ele>
        <time>2019-12-23T16:56:00Z</time>
      </trkpt>
      <trkpt lat="58.57743453332" lon="15.915545433575">
        <ele>0</ele>
        <time>2019-12-23T16:56:06Z</time>
      </trkpt>
      <trkpt lat="58.577234457367" lon="15.915614248974">
        <ele>0</ele>
        <time>2019-12-23T16:56:13Z</time>
      </trkpt>
      <trkpt lat="58.577035890156" lon="15.915704605856">
        <ele>0</ele>
        <time>2019-12-23T16:56:20Z</time>
      </trkpt>
      <trkpt lat="58.576848387053" lon="15.91577216397">
        <ele>0</ele>
        <time>2019-12-23T16:56:27Z</time>
      </trkpt>
      <trkpt lat="58.57666004576" lon="15.915817258592">
        <ele>0</ele>
        <time>2019-12-23T16:56:33Z</time>
      </trkpt>
      <trkpt lat="58.576598606433" lon="15.915824047931">
        <ele>0</ele>
        <time>2019-12-23T16:56:35Z</time>
      </trkpt>
      <trkpt lat="58.576387969286" lon="15.91585933573">
        <ele>0</ele>
        <time>2019-12-23T16:56:41Z</time>
      </trkpt>
      <trkpt lat="58.576207506979" lon="15.915904933266">
        <ele>0</ele>
        <time>2019-12-23T16:56:47Z</time>
      </trkpt>
      <trkpt lat="58.576015561469" lon="15.915975676502">
        <ele>0</ele>
        <time>2019-12-23T16:56:53Z</time>
      </trkpt>
      <trkpt lat="58.575815317878" lon="15.916073660913">
        <ele>0</ele>
        <time>2019-12-23T16:57:00Z</time>
      </trkpt>
      <trkpt lat="58.575756141664" lon="15.916092855464">
        <ele>0</ele>
        <time>2019-12-23T16:57:02Z</time>
      </trkpt>
      <trkpt lat="58.575575344081" lon="15.916171561505">
        <ele>0</ele>
        <time>2019-12-23T16:57:08Z</time>
      </trkpt>
      <trkpt lat="58.575384823494" lon="15.91621640467">
        <ele>0</ele>
        <time>2019-12-23T16:57:15Z</time>
      </trkpt>
      <trkpt lat="58.575326066375" lon="15.91621556648">
        <ele>0</ele>
        <time>2019-12-23T16:57:17Z</time>
      </trkpt>
      <trkpt lat="58.57513873091" lon="15.916165107442">
        <ele>0</ele>
        <time>2019-12-23T16:57:23Z</time>
      </trkpt>
      <trkpt lat="58.574952317454" lon="15.916217913412">
        <ele>0</ele>
        <time>2019-12-23T16:57:29Z</time>
      </trkpt>
      <trkpt lat="58.574748553465" lon="15.916260325826">
        <ele>0</ele>
        <time>2019-12-23T16:57:36Z</time>
      </trkpt>
      <trkpt lat="58.57462659682" lon="15.916178015568">
        <ele>0</ele>
        <time>2019-12-23T16:57:40Z</time>
      </trkpt>
      <trkpt lat="58.574504137261" lon="15.915918092849">
        <ele>0</ele>
        <time>2019-12-23T16:57:46Z</time>
      </trkpt>
      <trkpt lat="58.574406907221" lon="15.915671497351">
        <ele>0</ele>
        <time>2019-12-23T16:57:51Z</time>
      </trkpt>
      <trkpt lat="58.574305402412" lon="15.915364971268">
        <ele>0</ele>
        <time>2019-12-23T16:57:57Z</time>
      </trkpt>
      <trkpt lat="58.574201047757" lon="15.915036819883">
        <ele>0</ele>
        <time>2019-12-23T16:58:04Z</time>
      </trkpt>
      <trkpt lat="58.574189229278" lon="15.914983091904">
        <ele>0</ele>
        <time>2019-12-23T16:58:05Z</time>
      </trkpt>
      <trkpt lat="58.574156204592" lon="15.914635243054">
        <ele>0</ele>
        <time>2019-12-23T16:58:11Z</time>
      </trkpt>
      <trkpt lat="58.574225271448" lon="15.914368279539">
        <ele>0</ele>
        <time>2019-12-23T16:58:16Z</time>
      </trkpt>
      <trkpt lat="58.574321663298" lon="15.914031746254">
        <ele>0</ele>
        <time>2019-12-23T16:58:22Z</time>
      </trkpt>
      <trkpt lat="58.57442962217" lon="15.913712144407">
        <ele>0</ele>
        <time>2019-12-23T16:58:28Z</time>
      </trkpt>
      <trkpt lat="58.574539508879" lon="15.913388686886">
        <ele>0</ele>
        <time>2019-12-23T16:58:34Z</time>
      </trkpt>
      <trkpt lat="58.574646042828" lon="15.91307486855">
        <ele>0</ele>
        <time>2019-12-23T16:58:40Z</time>
      </trkpt>
      <trkpt lat="58.574729526552" lon="15.912745627518">
        <ele>0</ele>
        <time>2019-12-23T16:58:46Z</time>
      </trkpt>
      <trkpt lat="58.574795659743" lon="15.912412446993">
        <ele>0</ele>
        <time>2019-12-23T16:58:53Z</time>
      </trkpt>
      <trkpt lat="58.574881825675" lon="15.912075326975">
        <ele>0</ele>
        <time>2019-12-23T16:59:00Z</time>
      </trkpt>
      <trkpt lat="58.574921304424" lon="15.911695626905">
        <ele>0</ele>
        <time>2019-12-23T16:59:07Z</time>
      </trkpt>
      <trkpt lat="58.574954496748" lon="15.911322967631">
        <ele>0</ele>
        <time>2019-12-23T16:59:14Z</time>
      </trkpt>
      <trkpt lat="58.57503647173" lon="15.910978220084">
        <ele>0</ele>
        <time>2019-12-23T16:59:20Z</time>
      </trkpt>
      <trkpt lat="58.575121380377" lon="15.910653253821">
        <ele>0</ele>
        <time>2019-12-23T16:59:26Z</time>
      </trkpt>
      <trkpt lat="58.575190363414" lon="15.910320492391">
        <ele>0</ele>
        <time>2019-12-23T16:59:32Z</time>
      </trkpt>
      <trkpt lat="58.575248617619" lon="15.909984964934">
        <ele>0</ele>
        <time>2019-12-23T16:59:38Z</time>
      </trkpt>
      <trkpt lat="58.575290108024" lon="15.909632589858">
        <ele>0</ele>
        <time>2019-12-23T16:59:44Z</time>
      </trkpt>
      <trkpt lat="58.575330089687" lon="15.909286836483">
        <ele>0</ele>
        <time>2019-12-23T16:59:50Z</time>
      </trkpt>
      <trkpt lat="58.575389936453" lon="15.908954494148">
        <ele>0</ele>
        <time>2019-12-23T16:59:56Z</time>
      </trkpt>
      <trkpt lat="58.575459422404" lon="15.908586864014">
        <ele>0</ele>
        <time>2019-12-23T17:00:03Z</time>
      </trkpt>
      <trkpt lat="58.575513737116" lon="15.908224598296">
        <ele>0</ele>
        <time>2019-12-23T17:00:10Z</time>
      </trkpt>
      <trkpt lat="58.575525220319" lon="15.90809937271">
        <ele>0</ele>
        <time>2019-12-23T17:00:13Z</time>
      </trkpt>
      <trkpt lat="58.575392534842" lon="15.908024606162">
        <ele>0</ele>
        <time>2019-12-23T17:00:19Z</time>
      </trkpt>
      <trkpt lat="58.575295975354" lon="15.908133906138">
        <ele>0</ele>
        <time>2019-12-23T17:00:23Z</time>
      </trkpt>
      <trkpt lat="58.575161529678" lon="15.908370694813">
        <ele>0</ele>
        <time>2019-12-23T17:00:30Z</time>
      </trkpt>
      <trkpt lat="58.575053822263" lon="15.908535482967">
        <ele>0</ele>
        <time>2019-12-23T17:00:35Z</time>
      </trkpt>
      <trkpt lat="58.574976205869" lon="15.908676215068">
        <ele>0</ele>
        <time>2019-12-23T17:00:39Z</time>
      </trkpt>
      <trkpt lat="58.574888782652" lon="15.908859024307">
        <ele>0</ele>
        <time>2019-12-23T17:00:44Z</time>
      </trkpt>
      <trkpt lat="58.574765149627" lon="15.909164796019">
        <ele>0</ele>
        <time>2019-12-23T17:00:51Z</time>
      </trkpt>
      <trkpt lat="58.574696585685" lon="15.909297481496">
        <ele>0</ele>
        <time>2019-12-23T17:00:54Z</time>
      </trkpt>
      <trkpt lat="58.574583094759" lon="15.909577185499">
        <ele>0</ele>
        <time>2019-12-23T17:01:00Z</time>
      </trkpt>
      <trkpt lat="58.574460719019" lon="15.909897709355">
        <ele>0</ele>
        <time>2019-12-23T17:01:07Z</time>
      </trkpt>
      <trkpt lat="58.574335325795" lon="15.910200212126">
        <ele>0</ele>
        <time>2019-12-23T17:01:13Z</time>
      </trkpt>
      <trkpt lat="58.57423683847" lon="15.910443203407">
        <ele>0</ele>
        <time>2019-12-23T17:01:18Z</time>
      </trkpt>
      <trkpt lat="58.574112870169" lon="15.910655768391">
        <ele>0</ele>
        <time>2019-12-23T17:01:23Z</time>
      </trkpt>
      <trkpt lat="58.573915727881" lon="15.910808235152">
        <ele>0</ele>
        <time>2019-12-23T17:01:29Z</time>
      </trkpt>
      <trkpt lat="58.573883876661" lon="15.910834554318">
        <ele>0</ele>
        <time>2019-12-23T17:01:30Z</time>
      </trkpt>
      <trkpt lat="58.573820090402" lon="15.910878643112">
        <ele>0</ele>
        <time>2019-12-23T17:01:32Z</time>
      </trkpt>
      <trkpt lat="58.573641639751" lon="15.910998923377">
        <ele>0</ele>
        <time>2019-12-23T17:01:38Z</time>
      </trkpt>
      <trkpt lat="58.573449694241" lon="15.911116521434">
        <ele>0</ele>
        <time>2019-12-23T17:01:45Z</time>
      </trkpt>
      <trkpt lat="58.573278032929" lon="15.911237807527">
        <ele>0</ele>
        <time>2019-12-23T17:01:51Z</time>
      </trkpt>
      <trkpt lat="58.573102851219" lon="15.911379461637">
        <ele>0</ele>
        <time>2019-12-23T17:01:57Z</time>
      </trkpt>
      <trkpt lat="58.572925993129" lon="15.911504687223">
        <ele>0</ele>
        <time>2019-12-23T17:02:03Z</time>
      </trkpt>
      <trkpt lat="58.572751733428" lon="15.911591942802">
        <ele>0</ele>
        <time>2019-12-23T17:02:09Z</time>
      </trkpt>
      <trkpt lat="58.572557860081" lon="15.911645922238">
        <ele>0</ele>
        <time>2019-12-23T17:02:16Z</time>
      </trkpt>
      <trkpt lat="58.572371781901" lon="15.911684981892">
        <ele>0</ele>
        <time>2019-12-23T17:02:23Z</time>
      </trkpt>
      <trkpt lat="58.572174639613" lon="15.911769052349">
        <ele>0</ele>
        <time>2019-12-23T17:02:30Z</time>
      </trkpt>
      <trkpt lat="58.572122504195" lon="15.91180752527">
        <ele>0</ele>
        <time>2019-12-23T17:02:32Z</time>
      </trkpt>
      <trkpt lat="58.57200976764" lon="15.911887237139">
        <ele>0</ele>
        <time>2019-12-23T17:02:36Z</time>
      </trkpt>
      <trkpt lat="58.571838693061" lon="15.912007768861">
        <ele>0</ele>
        <time>2019-12-23T17:02:42Z</time>
      </trkpt>
      <trkpt lat="58.571778343381" lon="15.912051522379">
        <ele>0</ele>
        <time>2019-12-23T17:02:44Z</time>
      </trkpt>
      <trkpt lat="58.571602239662" lon="15.912173059929">
        <ele>0</ele>
        <time>2019-12-23T17:02:50Z</time>
      </trkpt>
      <trkpt lat="58.571413227817" lon="15.912332986581">
        <ele>0</ele>
        <time>2019-12-23T17:02:57Z</time>
      </trkpt>
      <trkpt lat="58.571293282828" lon="15.912419655427">
        <ele>0</ele>
        <time>2019-12-23T17:03:01Z</time>
      </trkpt>
      <trkpt lat="58.57109697873" lon="15.912557956777">
        <ele>0</ele>
        <time>2019-12-23T17:03:08Z</time>
      </trkpt>
      <trkpt lat="58.57090251865" lon="15.912658204301">
        <ele>0</ele>
        <time>2019-12-23T17:03:16Z</time>
      </trkpt>
      <trkpt lat="58.570708226208" lon="15.912792985253">
        <ele>0</ele>
        <time>2019-12-23T17:03:23Z</time>
      </trkpt>
      <trkpt lat="58.570509491359" lon="15.912917875563">
        <ele>0</ele>
        <time>2019-12-23T17:03:30Z</time>
      </trkpt>
      <trkpt lat="58.570316288564" lon="15.912979566347">
        <ele>0</ele>
        <time>2019-12-23T17:03:36Z</time>
      </trkpt>
      <trkpt lat="58.570114452412" lon="15.912979398709">
        <ele>0</ele>
        <time>2019-12-23T17:03:42Z</time>
      </trkpt>
      <trkpt lat="58.570081343907" lon="15.912980655994">
        <ele>0</ele>
        <time>2019-12-23T17:03:43Z</time>
      </trkpt>
      <trkpt lat="58.569967769162" lon="15.913045112805">
        <ele>0</ele>
        <time>2019-12-23T17:03:47Z</time>
      </trkpt>
      <trkpt lat="58.569809099795" lon="15.913266227327">
        <ele>0</ele>
        <time>2019-12-23T17:03:53Z</time>
      </trkpt>
      <trkpt lat="58.569708433176" lon="15.913461357959">
        <ele>0</ele>
        <time>2019-12-23T17:03:57Z</time>
      </trkpt>
      <trkpt lat="58.569571640568" lon="15.913742319247">
        <ele>0</ele>
        <time>2019-12-23T17:04:03Z</time>
      </trkpt>
      <trkpt lat="58.569522690272" lon="15.913833681957">
        <ele>0</ele>
        <time>2019-12-23T17:04:05Z</time>
      </trkpt>
      <trkpt lat="58.56937952742" lon="15.91398514289">
        <ele>0</ele>
        <time>2019-12-23T17:04:10Z</time>
      </trkpt>
      <trkpt lat="58.569262264639" lon="15.914028561132">
        <ele>0</ele>
        <time>2019-12-23T17:04:14Z</time>
      </trkpt>
      <trkpt lat="58.569155143957" lon="15.914077092333">
        <ele>0</ele>
        <time>2019-12-23T17:04:18Z</time>
      </trkpt>
      <trkpt lat="58.569130417352" lon="15.9141603246">
        <ele>0</ele>
        <time>2019-12-23T17:04:20Z</time>
      </trkpt>
      <trkpt lat="58.569157574708" lon="15.914499120998">
        <ele>0</ele>
        <time>2019-12-23T17:04:26Z</time>
      </trkpt>
      <trkpt lat="58.569249188875" lon="15.914845628744">
        <ele>0</ele>
        <time>2019-12-23T17:04:32Z</time>
      </trkpt>
      <trkpt lat="58.569344574897" lon="15.915197668544">
        <ele>0</ele>
        <time>2019-12-23T17:04:38Z</time>
      </trkpt>
      <trkpt lat="58.569432081933" lon="15.915518862952">
        <ele>0</ele>
        <time>2019-12-23T17:04:44Z</time>
      </trkpt>
      <trkpt lat="58.569507099938" lon="15.915831926917">
        <ele>0</ele>
        <time>2019-12-23T17:04:50Z</time>
      </trkpt>
      <trkpt lat="58.569544231755" lon="15.915989925732">
        <ele>0</ele>
        <time>2019-12-23T17:04:53Z</time>
      </trkpt>
      <trkpt lat="58.569623608348" lon="15.916310449588">
        <ele>0</ele>
        <time>2019-12-23T17:04:59Z</time>
      </trkpt>
      <trkpt lat="58.569708014081" lon="15.916652514927">
        <ele>0</ele>
        <time>2019-12-23T17:05:06Z</time>
      </trkpt>
      <trkpt lat="58.569782864448" lon="15.916973876973">
        <ele>0</ele>
        <time>2019-12-23T17:05:12Z</time>
      </trkpt>
      <trkpt lat="58.569862660136" lon="15.917190465269">
        <ele>0</ele>
        <time>2019-12-23T17:05:16Z</time>
      </trkpt>
      <trkpt lat="58.569970786646" lon="15.917515431532">
        <ele>0</ele>
        <time>2019-12-23T17:05:22Z</time>
      </trkpt>
      <trkpt lat="58.569983443315" lon="15.917570584434">
        <ele>0</ele>
        <time>2019-12-23T17:05:23Z</time>
      </trkpt>
      <trkpt lat="58.570077488233" lon="15.91789278467">
        <ele>0</ele>
        <time>2019-12-23T17:05:29Z</time>
      </trkpt>
      <trkpt lat="58.570171449332" lon="15.918196963821">
        <ele>0</ele>
        <time>2019-12-23T17:05:35Z</time>
      </trkpt>
      <trkpt lat="58.570269433743" lon="15.91852561812">
        <ele>0</ele>
        <time>2019-12-23T17:05:41Z</time>
      </trkpt>
      <trkpt lat="58.570256357979" lon="15.91870415259">
        <ele>0</ele>
        <time>2019-12-23T17:05:44Z</time>
      </trkpt>
      <trkpt lat="58.570086875961" lon="15.91889358353">
        <ele>0</ele>
        <time>2019-12-23T17:05:50Z</time>
      </trkpt>
      <trkpt lat="58.569907251844" lon="15.919069519611">
        <ele>0</ele>
        <time>2019-12-23T17:05:56Z</time>
      </trkpt>
      <trkpt lat="58.569735003799" lon="15.91922383039">
        <ele>0</ele>
        <time>2019-12-23T17:06:02Z</time>
      </trkpt>
      <trkpt lat="58.569546830144" lon="15.919334387651">
        <ele>0</ele>
        <time>2019-12-23T17:06:09Z</time>
      </trkpt>
      <trkpt lat="58.569446079706" lon="15.91929088559">
        <ele>0</ele>
        <time>2019-12-23T17:06:13Z</time>
      </trkpt>
      <trkpt lat="58.569472985605" lon="15.919340841714">
        <ele>0</ele>
        <time>2019-12-23T17:06:16Z</time>
      </trkpt>
      <trkpt lat="58.569671636635" lon="15.919251742117">
        <ele>0</ele>
        <time>2019-12-23T17:06:23Z</time>
      </trkpt>
      <trkpt lat="58.569862492498" lon="15.919106902885">
        <ele>0</ele>
        <time>2019-12-23T17:06:29Z</time>
      </trkpt>
      <trkpt lat="58.57002493372" lon="15.918882267965">
        <ele>0</ele>
        <time>2019-12-23T17:06:35Z</time>
      </trkpt>
      <trkpt lat="58.570203635828" lon="15.918682192012">
        <ele>0</ele>
        <time>2019-12-23T17:06:42Z</time>
      </trkpt>
      <trkpt lat="58.570354174752" lon="15.918827701796">
        <ele>0</ele>
        <time>2019-12-23T17:06:48Z</time>
      </trkpt>
      <trkpt lat="58.570460289606" lon="15.919164067443">
        <ele>0</ele>
        <time>2019-12-23T17:06:54Z</time>
      </trkpt>
      <trkpt lat="58.570540839665" lon="15.919505797506">
        <ele>0</ele>
        <time>2019-12-23T17:07:00Z</time>
      </trkpt>
      <trkpt lat="58.570580569871" lon="15.919665724158">
        <ele>0</ele>
        <time>2019-12-23T17:07:03Z</time>
      </trkpt>
      <trkpt lat="58.570652654211" lon="15.919982643797">
        <ele>0</ele>
        <time>2019-12-23T17:07:09Z</time>
      </trkpt>
      <trkpt lat="58.570686014173" lon="15.920280620342">
        <ele>0</ele>
        <time>2019-12-23T17:07:15Z</time>
      </trkpt>
      <trkpt lat="58.570519382001" lon="15.920477678811">
        <ele>0</ele>
        <time>2019-12-23T17:07:21Z</time>
      </trkpt>
      <trkpt lat="58.570332046536" lon="15.920632743961">
        <ele>0</ele>
        <time>2019-12-23T17:07:27Z</time>
      </trkpt>
      <trkpt lat="58.570154936989" lon="15.920767189637">
        <ele>0</ele>
        <time>2019-12-23T17:07:33Z</time>
      </trkpt>
      <trkpt lat="58.569976486338" lon="15.920889984472">
        <ele>0</ele>
        <time>2019-12-23T17:07:39Z</time>
      </trkpt>
      <trkpt lat="58.569794096194" lon="15.921045552536">
        <ele>0</ele>
        <time>2019-12-23T17:07:46Z</time>
      </trkpt>
      <trkpt lat="58.569626290556" lon="15.921178740927">
        <ele>0</ele>
        <time>2019-12-23T17:07:52Z</time>
      </trkpt>
      <trkpt lat="58.569515984752" lon="15.921275635691">
        <ele>0</ele>
        <time>2019-12-23T17:07:57Z</time>
      </trkpt>
      <trkpt lat="58.56962763166" lon="15.921024011053">
        <ele>0</ele>
        <time>2019-12-23T17:08:04Z</time>
      </trkpt>
      <trkpt lat="58.569802645732" lon="15.92089601944">
        <ele>0</ele>
        <time>2019-12-23T17:08:10Z</time>
      </trkpt>
      <trkpt lat="58.569978330356" lon="15.920761154669">
        <ele>0</ele>
        <time>2019-12-23T17:08:16Z</time>
      </trkpt>
      <trkpt lat="58.570156613369" lon="15.920642466965">
        <ele>0</ele>
        <time>2019-12-23T17:08:22Z</time>
      </trkpt>
      <trkpt lat="58.570338752056" lon="15.920523108709">
        <ele>0</ele>
        <time>2019-12-23T17:08:29Z</time>
      </trkpt>
      <trkpt lat="58.570526338978" lon="15.920356141261">
        <ele>0</ele>
        <time>2019-12-23T17:08:36Z</time>
      </trkpt>
      <trkpt lat="58.570689786028" lon="15.920215492979">
        <ele>0</ele>
        <time>2019-12-23T17:08:42Z</time>
      </trkpt>
      <trkpt lat="58.570881899176" lon="15.920070569928">
        <ele>0</ele>
        <time>2019-12-23T17:08:49Z</time>
      </trkpt>
      <trkpt lat="58.571053728126" lon="15.919967975472">
        <ele>0</ele>
        <time>2019-12-23T17:08:55Z</time>
      </trkpt>
      <trkpt lat="58.571202674489" lon="15.91992623361">
        <ele>0</ele>
        <time>2019-12-23T17:09:01Z</time>
      </trkpt>
      <trkpt lat="58.571286158213" lon="15.920034443939">
        <ele>0</ele>
        <time>2019-12-23T17:09:04Z</time>
      </trkpt>
      <trkpt lat="58.571403840089" lon="15.920310711363">
        <ele>0</ele>
        <time>2019-12-23T17:09:09Z</time>
      </trkpt>
      <trkpt lat="58.571523114526" lon="15.920628888287">
        <ele>0</ele>
        <time>2019-12-23T17:09:15Z</time>
      </trkpt>
      <trkpt lat="58.571593019572" lon="15.920850002809">
        <ele>0</ele>
        <time>2019-12-23T17:09:19Z</time>
      </trkpt>
      <trkpt lat="58.571692680363" lon="15.921171448674">
        <ele>0</ele>
        <time>2019-12-23T17:09:25Z</time>
      </trkpt>
      <trkpt lat="58.571774990621" lon="15.921528517614">
        <ele>0</ele>
        <time>2019-12-23T17:09:32Z</time>
      </trkpt>
      <trkpt lat="58.571831149351" lon="15.92170738736">
        <ele>0</ele>
        <time>2019-12-23T17:09:37Z</time>
      </trkpt>
      <trkpt lat="58.57191169941" lon="15.92205188345">
        <ele>0</ele>
        <time>2019-12-23T17:09:44Z</time>
      </trkpt>
      <trkpt lat="58.571982694103" lon="15.922409203847">
        <ele>0</ele>
        <time>2019-12-23T17:09:50Z</time>
      </trkpt>
      <trkpt lat="58.572054610805" lon="15.922733499558">
        <ele>0</ele>
        <time>2019-12-23T17:09:56Z</time>
      </trkpt>
      <trkpt lat="58.572131221371" lon="15.923084868806">
        <ele>0</ele>
        <time>2019-12-23T17:10:03Z</time>
      </trkpt>
      <trkpt lat="58.572232977637" lon="15.923414948028">
        <ele>0</ele>
        <time>2019-12-23T17:10:10Z</time>
      </trkpt>
      <trkpt lat="58.572244712297" lon="15.923466412894">
        <ele>0</ele>
        <time>2019-12-23T17:10:11Z</time>
      </trkpt>
      <trkpt lat="58.572340601233" lon="15.923810489889">
        <ele>0</ele>
        <time>2019-12-23T17:10:18Z</time>
      </trkpt>
      <trkpt lat="58.572402794931" lon="15.924129421184">
        <ele>0</ele>
        <time>2019-12-23T17:10:25Z</time>
      </trkpt>
      <trkpt lat="58.572426934803" lon="15.92453963137">
        <ele>0</ele>
        <time>2019-12-23T17:10:31Z</time>
      </trkpt>
      <trkpt lat="58.572395083583" lon="15.924908099694">
        <ele>0</ele>
        <time>2019-12-23T17:10:37Z</time>
      </trkpt>
      <trkpt lat="58.572325513813" lon="15.925242537504">
        <ele>0</ele>
        <time>2019-12-23T17:10:43Z</time>
      </trkpt>
      <trkpt lat="58.57226373921" lon="15.92561">
        <ele>0</ele>
        <time>2019-12-23T17:10:49Z</time>
      </trkpt>
      <trkpt lat="58.57219416944" lon="15.925972014261">
        <ele>0</ele>
        <time>2019-12-23T17:10:55Z</time>
      </trkpt>
      <trkpt lat="58.57210783587" lon="15.926315839799">
        <ele>0</ele>
        <time>2019-12-23T17:11:01Z</time>
      </trkpt>
      <trkpt lat="58.572036422082" lon="15.926682631743">
        <ele>0</ele>
        <time>2019-12-23T17:11:08Z</time>
      </trkpt>
      <trkpt lat="58.571948412132" lon="15.927049758963">
        <ele>0</ele>
        <time>2019-12-23T17:11:15Z</time>
      </trkpt>
      <trkpt lat="58.571861743286" lon="15.927423172608">
        <ele>0</ele>
        <time>2019-12-23T17:11:21Z</time>
      </trkpt>
      <trkpt lat="58.571779349209" lon="15.927731877985">
        <ele>0</ele>
        <time>2019-12-23T17:11:27Z</time>
      </trkpt>
      <trkpt lat="58.571675832744" lon="15.928058269171">
        <ele>0</ele>
        <time>2019-12-23T17:11:34Z</time>
      </trkpt>
      <trkpt lat="58.571652028148" lon="15.928154241926">
        <ele>0</ele>
        <time>2019-12-23T17:11:36Z</time>
      </trkpt>
      <trkpt lat="58.571579943808" lon="15.928468982271">
        <ele>0</ele>
        <time>2019-12-23T17:11:42Z</time>
      </trkpt>
      <trkpt lat="58.571551193891" lon="15.928698059598">
        <ele>0</ele>
        <time>2019-12-23T17:11:46Z</time>
      </trkpt>
      <trkpt lat="58.571512134237" lon="15.929048758294">
        <ele>0</ele>
        <time>2019-12-23T17:11:51Z</time>
      </trkpt>
      <trkpt lat="58.571485479795" lon="15.929410018184">
        <ele>0</ele>
        <time>2019-12-23T17:11:57Z</time>
      </trkpt>
      <trkpt lat="58.571439714621" lon="15.92976239326">
        <ele>0</ele>
        <time>2019-12-23T17:12:04Z</time>
      </trkpt>
      <trkpt lat="58.571393781809" lon="15.930135806905">
        <ele>0</ele>
        <time>2019-12-23T17:12:11Z</time>
      </trkpt>
      <trkpt lat="58.57135262668" lon="15.930511567482">
        <ele>0</ele>
        <time>2019-12-23T17:12:17Z</time>
      </trkpt>
      <trkpt lat="58.571320524003" lon="15.930872827372">
        <ele>0</ele>
        <time>2019-12-23T17:12:23Z</time>
      </trkpt>
      <trkpt lat="58.57130149709" lon="15.93100710541">
        <ele>0</ele>
        <time>2019-12-23T17:12:25Z</time>
      </trkpt>
      <trkpt lat="58.571263359445" lon="15.931345650351">
        <ele>0</ele>
        <time>2019-12-23T17:12:30Z</time>
      </trkpt>
      <trkpt lat="58.571239890125" lon="15.931619906119">
        <ele>0</ele>
        <time>2019-12-23T17:12:34Z</time>
      </trkpt>
      <trkpt lat="58.571228323103" lon="15.931964905123">
        <ele>0</ele>
        <time>2019-12-23T17:12:39Z</time>
      </trkpt>
      <trkpt lat="58.571234106614" lon="15.932096500953">
        <ele>0</ele>
        <time>2019-12-23T17:12:41Z</time>
      </trkpt>
      <trkpt lat="58.571227568732" lon="15.932443176337">
        <ele>0</ele>
        <time>2019-12-23T17:12:46Z</time>
      </trkpt>
      <trkpt lat="58.571224132153" lon="15.932570162122">
        <ele>0</ele>
        <time>2019-12-23T17:12:48Z</time>
      </trkpt>
      <trkpt lat="58.571198315901" lon="15.932962937956">
        <ele>0</ele>
        <time>2019-12-23T17:12:54Z</time>
      </trkpt>
      <trkpt lat="58.571197729168" lon="15.933324197846">
        <ele>0</ele>
        <time>2019-12-23T17:13:00Z</time>
      </trkpt>
      <trkpt lat="58.571230837673" lon="15.93370942997">
        <ele>0</ele>
        <time>2019-12-23T17:13:06Z</time>
      </trkpt>
      <trkpt lat="58.571252714432" lon="15.934056775906">
        <ele>0</ele>
        <time>2019-12-23T17:13:12Z</time>
      </trkpt>
      <trkpt lat="58.571272495716" lon="15.934446953351">
        <ele>0</ele>
        <time>2019-12-23T17:13:19Z</time>
      </trkpt>
      <trkpt lat="58.571281464349" lon="15.934713665409">
        <ele>0</ele>
        <time>2019-12-23T17:13:23Z</time>
      </trkpt>
      <trkpt lat="58.571292193181" lon="15.935111638021">
        <ele>0</ele>
        <time>2019-12-23T17:13:29Z</time>
      </trkpt>
      <trkpt lat="58.571307112963" lon="15.935502569837">
        <ele>0</ele>
        <time>2019-12-23T17:13:35Z</time>
      </trkpt>
      <trkpt lat="58.571308621705" lon="15.935565014992">
        <ele>0</ele>
        <time>2019-12-23T17:13:36Z</time>
      </trkpt>
      <trkpt lat="58.571326475152" lon="15.935922922122">
        <ele>0</ele>
        <time>2019-12-23T17:13:42Z</time>
      </trkpt>
      <trkpt lat="58.571342065486" lon="15.936277057397">
        <ele>0</ele>
        <time>2019-12-23T17:13:48Z</time>
      </trkpt>
      <trkpt lat="58.571357152906" lon="15.936670084688">
        <ele>0</ele>
        <time>2019-12-23T17:13:55Z</time>
      </trkpt>
      <trkpt lat="58.571370983041" lon="15.937067470567">
        <ele>0</ele>
        <time>2019-12-23T17:14:02Z</time>
      </trkpt>
      <trkpt lat="58.571377604742" lon="15.937427137896">
        <ele>0</ele>
        <time>2019-12-23T17:14:08Z</time>
      </trkpt>
      <trkpt lat="58.571383891167" lon="15.937478267486">
        <ele>0</ele>
        <time>2019-12-23T17:14:09Z</time>
      </trkpt>
      <trkpt lat="58.571414820378" lon="15.937508190869">
        <ele>0</ele>
        <time>2019-12-23T17:14:11Z</time>
      </trkpt>
      <trkpt lat="58.571604838051" lon="15.93733963086">
        <ele>0</ele>
        <time>2019-12-23T17:14:17Z</time>
      </trkpt>
      <trkpt lat="58.571635180529" lon="15.937329321123">
        <ele>0</ele>
        <time>2019-12-23T17:14:18Z</time>
      </trkpt>
      <trkpt lat="58.57168706449" lon="15.937396963056">
        <ele>0</ele>
        <time>2019-12-23T17:14:20Z</time>
      </trkpt>
      <trkpt lat="58.571768201282" lon="15.937703992053">
        <ele>0</ele>
        <time>2019-12-23T17:14:26Z</time>
      </trkpt>
      <trkpt lat="58.571855373042" lon="15.938023426262">
        <ele>0</ele>
        <time>2019-12-23T17:14:32Z</time>
      </trkpt>
      <trkpt lat="58.571897533999" lon="15.938362893212">
        <ele>0</ele>
        <time>2019-12-23T17:14:38Z</time>
      </trkpt>
    </trkseg>
  </trk>
</gpx>